Latitude: N 50° 09' 49" Longitude: W 05° 11' 53" Elevation: 168m ASL

There are 3 visitors online

Adverts

<- Previous Day | Today | Next Day ->

All Data for 14 February 2018

Time
A - D
Temp
A - D
Dew Point
A - D
Humidity
A - D
Pressure
A - D
Wind
A - D
Wind Dir Gust
A - D
Rain Rate
A - D
Rain Total
00:00 2.8 1.5 91 1006.0 8.3 SE 9.2 0.0 0.0
00:01 2.9 1.6 91 1006.0 8.3 SE 9.2 0.0 0.0
00:03 2.9 1.4 90 1006.0 6.9 SE 9.2 0.0 0.0
00:04 3.0 1.5 90 1005.8 6.0 SE 9.2 0.0 0.0
00:06 3.0 1.5 90 1006.0 9.8 SE 9.8 0.0 0.0
00:07 3.0 1.5 90 1006.0 9.2 SE 9.8 0.0 0.0
00:09 3.1 1.6 90 1006.0 7.6 SE 9.8 0.0 0.0
00:10 3.1 1.6 90 1006.0 7.6 SE 9.8 0.0 0.0
00:12 3.1 1.6 90 1005.9 6.0 SE 9.8 0.0 0.0
00:13 3.1 1.6 90 1005.9 8.3 SE 9.8 0.0 0.0
00:14 3.2 1.7 90 1005.8 6.0 SE 9.8 0.0 0.0
00:16 3.2 1.7 90 1005.7 6.9 SE 9.8 0.0 0.0
00:17 3.2 1.7 90 1005.8 6.0 SE 9.2 0.0 0.0
00:18 3.2 1.7 90 1005.7 9.2 SE 9.2 0.0 0.0
00:19 3.2 1.7 90 1005.8 6.9 SE 9.2 0.0 0.0
00:20 3.1 1.6 90 1005.7 6.9 SE 9.2 0.0 0.0
00:21 3.2 1.7 90 1005.7 8.3 SE 9.2 0.0 0.0
00:22 3.1 1.6 90 1005.8 7.6 SE 9.2 0.0 0.0
00:23 3.1 1.6 90 1005.8 8.3 SE 9.2 0.0 0.0
00:24 3.1 1.6 90 1005.7 6.0 SE 9.2 0.0 0.0
00:25 3.1 1.6 90 1005.8 7.6 SE 9.2 0.0 0.0
00:26 3.2 1.7 90 1005.8 8.3 SE 9.2 0.0 0.0
00:27 3.2 1.7 90 1005.8 8.3 SE 9.2 0.0 0.0
00:28 3.2 1.7 90 1005.8 8.3 SE 9.2 0.0 0.0
00:29 3.2 1.7 90 1005.9 7.6 SE 9.2 0.0 0.0
00:30 3.2 1.7 90 1005.9 9.8 SE 9.8 0.0 0.0
00:31 3.2 1.7 90 1005.7 9.8 S 9.8 0.0 0.0
00:32 3.2 1.7 90 1005.8 9.2 S 9.8 0.0 0.0
00:33 3.2 1.7 90 1005.6 7.6 SE 9.8 0.0 0.0
00:34 3.2 1.7 90 1005.7 11.4 SE 11.4 0.0 0.0
00:35 3.3 1.8 90 1005.7 9.8 SE 11.4 0.0 0.0
00:36 3.3 1.8 90 1005.7 9.8 SE 11.4 0.0 0.0
00:38 3.3 1.8 90 1005.6 10.7 S 11.4 0.0 0.0
00:39 3.4 1.9 90 1005.6 9.2 SE 11.4 0.0 0.0
00:40 3.4 1.9 90 1005.8 9.8 SE 11.4 0.0 0.0
00:41 3.4 1.9 90 1005.7 7.6 SE 11.4 0.0 0.0
00:43 3.5 2.0 90 1005.6 8.3 SE 11.4 0.0 0.0
00:44 3.5 2.0 90 1005.5 11.4 SE 11.4 0.0 0.0
00:45 3.5 2.0 90 1005.6 6.9 SE 11.4 0.0 0.0
00:46 3.5 2.0 90 1005.5 7.6 SE 11.4 0.0 0.0
00:47 3.5 2.0 90 1005.4 6.9 SE 11.4 0.0 0.0
00:48 3.5 2.0 90 1005.4 6.9 SE 11.4 0.0 0.0
00:49 3.5 2.0 90 1005.3 8.3 SE 11.4 0.0 0.0
00:50 3.5 2.0 90 1005.3 6.0 SE 11.4 0.0 0.0
00:51 3.5 2.0 90 1005.4 9.2 SE 11.4 0.0 0.0
00:52 3.5 2.0 90 1005.4 8.3 E 11.4 0.0 0.0
00:53 3.5 2.0 90 1005.3 6.9 SE 11.4 0.0 0.0
00:55 3.5 2.0 90 1005.3 7.6 SE 10.7 0.0 0.0
00:56 3.5 2.0 90 1005.2 6.9 SE 10.7 0.0 0.0
00:57 3.5 2.0 90 1005.2 9.2 SE 9.2 0.0 0.0
00:58 3.5 2.0 90 1005.3 10.7 SE 10.7 0.0 0.0
00:59 3.5 2.0 90 1005.3 9.8 SE 10.7 0.0 0.0
01:00 3.6 2.1 90 1005.3 13.6 SE 13.6 0.0 0.0
01:01 3.6 2.1 90 1005.2 11.4 SE 13.6 0.0 0.0
01:02 3.6 2.1 90 1005.2 7.6 S 13.6 0.0 0.0
01:03 3.6 2.1 90 1005.2 11.4 S 13.6 0.0 0.0
01:04 3.7 2.2 90 1005.3 13.0 S 13.6 0.0 0.0
01:05 3.7 2.2 90 1005.2 11.4 E 13.6 0.0 0.0
01:06 3.8 2.3 90 1005.2 13.0 SE 13.6 0.0 0.0
01:07 3.8 2.3 90 1005.2 9.2 SE 13.6 0.0 0.0
01:08 3.8 2.3 90 1005.1 11.4 SE 13.6 0.0 0.0
01:09 3.8 2.3 90 1005.1 10.7 S 13.6 0.0 0.0
01:10 3.9 2.4 90 1004.9 11.4 S 13.0 0.0 0.0
01:11 3.9 2.4 90 1005.1 9.2 SE 13.0 0.0 0.0
01:12 3.8 2.3 90 1005.1 13.0 SE 13.0 0.0 0.0
01:13 4.0 2.5 90 1005.1 10.7 SE 13.0 0.0 0.0
01:14 4.0 2.5 90 1005.1 11.4 SE 13.0 0.0 0.0
01:15 4.0 2.5 90 1004.9 11.4 S 13.0 0.0 0.0
01:17 4.0 2.5 90 1005.0 13.6 SE 13.6 0.0 0.0
01:18 4.1 2.6 90 1005.0 9.8 SE 13.6 0.0 0.0
01:19 4.1 2.6 90 1005.1 9.8 SE 13.6 0.0 0.0
01:20 4.1 2.6 90 1005.0 10.7 SE 13.6 0.0 0.0
01:21 4.1 2.6 90 1005.1 9.8 S 13.6 0.0 0.0
01:22 4.2 2.7 90 1005.0 12.1 SE 13.6 0.0 0.0
01:23 4.2 2.7 90 1005.0 13.0 S 13.6 0.0 0.0
01:24 4.2 2.7 90 1005.0 11.4 SE 13.6 0.0 0.0
01:25 4.2 2.7 90 1005.0 9.8 SE 13.6 0.0 0.0
01:26 4.2 2.7 90 1005.0 13.6 S 13.6 0.0 0.0
01:27 4.2 2.7 90 1004.8 13.0 SE 13.6 0.0 0.0
01:28 4.3 2.8 90 1005.0 13.0 S 13.6 0.0 0.0
01:29 4.3 2.8 90 1004.9 13.6 S 13.6 0.0 0.0
01:30 4.3 2.8 90 1004.9 17.4 SE 17.4 0.0 0.0
01:31 4.3 2.8 90 1004.9 13.6 NW 17.4 0.0 0.0
01:32 4.4 2.9 90 1004.8 15.2 S 17.4 0.0 0.0
01:33 4.4 2.9 90 1004.8 12.1 SE 17.4 0.0 0.0
01:34 4.4 2.9 90 1004.8 12.1 SE 17.4 0.0 0.0
01:35 4.4 2.9 90 1004.6 12.1 SE 17.4 0.0 0.0
01:36 4.4 2.9 90 1004.6 12.1 S 17.4 0.0 0.0
01:37 4.4 2.7 89 1004.8 13.6 SE 17.4 0.0 0.0
01:39 4.5 2.8 89 1004.7 10.7 SE 17.4 0.0 0.0
01:40 4.5 2.8 89 1004.7 15.9 SE 17.4 0.0 0.0
01:41 4.5 2.8 89 1004.8 11.4 SE 15.9 0.0 0.0
01:42 4.5 2.8 89 1004.7 17.4 S 17.4 0.0 0.0
01:43 4.5 2.8 89 1004.6 10.7 S 17.4 0.0 0.0
01:44 4.6 2.9 89 1004.6 11.4 SE 17.4 0.0 0.0
01:45 4.5 2.8 89 1004.7 10.7 S 17.4 0.0 0.0
01:46 4.6 2.9 89 1004.6 14.5 SE 17.4 0.0 0.0
01:47 4.6 2.9 89 1004.5 15.2 S 17.4 0.0 0.0
01:48 4.6 2.9 89 1004.7 12.1 SE 17.4 0.0 0.0
01:49 4.6 2.9 89 1004.6 13.6 S 17.4 0.0 0.0
01:50 4.7 3.0 89 1004.6 13.6 S 17.4 0.0 0.0
01:51 4.7 3.0 89 1004.6 11.4 SE 17.4 0.0 0.0
01:52 4.7 3.0 89 1004.6 15.9 SE 15.9 0.0 0.0
01:53 4.7 3.0 89 1004.6 13.0 SE 15.9 0.0 0.0
01:54 4.7 3.0 89 1004.6 15.9 SE 15.9 0.0 0.0
01:55 4.7 3.0 89 1004.5 13.6 S 15.9 0.0 0.0
01:56 4.8 3.1 89 1004.5 13.0 S 15.9 0.0 0.0
01:57 4.8 3.1 89 1004.6 12.1 S 15.9 0.0 0.0
01:58 4.8 3.1 89 1004.5 15.2 S 15.9 0.0 0.0
02:00 4.8 3.0 88 1004.5 15.9 NW 15.9 0.0 0.0
02:01 4.9 3.1 88 1004.4 13.0 S 15.9 0.0 0.0
02:02 4.8 3.0 88 1004.4 15.2 SE 15.9 0.0 0.0
02:03 4.9 3.1 88 1004.3 13.0 S 15.9 0.0 0.0
02:04 4.9 3.1 88 1004.5 17.4 S 17.4 0.0 0.0
02:05 4.9 3.1 88 1004.3 11.4 SE 17.4 0.0 0.0
02:06 4.9 3.1 88 1004.3 11.4 S 17.4 0.0 0.0
02:07 4.9 3.1 88 1004.2 13.0 SE 17.4 0.0 0.0
02:08 5.0 3.2 88 1004.4 11.4 SE 17.4 0.0 0.0
02:10 5.0 3.2 88 1004.2 14.5 SE 17.4 0.0 0.0
02:11 5.0 3.2 88 1004.4 15.2 SE 17.4 0.0 0.0
02:12 5.0 3.2 88 1004.2 8.3 S 17.4 0.0 0.0
02:13 5.0 3.2 88 1004.3 8.3 S 17.4 0.0 0.0
02:14 5.0 3.2 88 1004.3 15.9 S 17.4 0.0 0.0
02:15 5.0 3.2 88 1004.1 13.6 S 15.9 0.0 0.0
02:16 5.0 3.2 88 1004.2 16.8 SE 16.8 0.0 0.0
02:17 5.0 3.2 88 1004.2 13.6 S 16.8 0.0 0.0
02:18 5.0 3.2 88 1004.1 12.1 NNE 17.4 0.0 0.0
02:19 5.1 3.3 88 1004.1 11.4 S 17.4 0.0 0.0
02:20 5.1 3.3 88 1004.0 12.1 S 17.4 0.0 0.0
02:21 5.0 3.2 88 1003.9 13.6 SE 17.4 0.0 0.0
02:22 5.1 3.3 88 1004.0 13.6 SE 17.4 0.0 0.0
02:23 5.1 3.3 88 1004.0 16.8 SE 17.4 0.0 0.0
02:24 5.1 3.1 87 1004.0 15.2 SE 17.4 0.0 0.0
02:25 5.1 3.1 87 1004.0 15.2 S 17.4 0.0 0.0
02:26 5.1 3.1 87 1003.9 15.2 SE 17.4 0.0 0.0
02:27 5.1 3.1 87 1003.9 10.7 SE 17.4 0.0 0.0
02:28 5.1 3.1 87 1003.9 16.8 SE 16.8 0.0 0.0
02:30 5.2 3.2 87 1003.7 15.9 SE 16.8 0.0 0.0
02:31 5.2 3.2 87 1003.7 15.9 SW 16.8 0.0 0.0
02:37 5.2 3.2 87 1003.6 10.7 SE 16.8 0.0 0.0
02:38 5.2 3.2 87 1003.5 13.0 SE 15.9 0.0 0.0
02:39 5.2 3.2 87 1003.7 14.5 S 15.9 0.0 0.0
02:40 5.2 3.2 87 1003.5 12.1 S 15.9 0.0 0.0
02:41 5.2 3.2 87 1003.5 12.1 SE 14.5 0.0 0.0
02:42 5.2 3.2 87 1003.5 17.4 SE 17.4 0.0 0.0
02:43 5.3 3.3 87 1003.4 13.0 SE 17.4 0.0 0.0
02:44 5.3 3.3 87 1003.4 15.2 S 17.4 0.0 0.0
02:45 5.3 3.3 87 1003.4 15.9 SE 17.4 0.0 0.0
02:46 5.3 3.3 87 1003.2 13.0 SE 17.4 0.0 0.0
02:47 5.3 3.3 87 1003.5 13.0 SE 17.4 0.0 0.0
02:48 5.2 3.2 87 1003.4 14.5 S 17.4 0.0 0.0
02:49 5.3 3.3 87 1003.2 17.4 SE 17.4 0.0 0.0
02:50 5.3 3.3 87 1003.3 15.9 S 17.4 0.0 0.0
02:52 5.3 3.2 86 1003.4 15.2 SE 17.4 0.0 0.0
02:53 5.3 3.3 87 1003.2 20.6 SE 20.6 0.0 0.0
02:54 5.3 3.3 87 1003.2 17.4 SE 20.6 0.0 0.0
02:55 5.3 3.3 87 1003.1 13.6 SE 20.6 0.0 0.0
02:56 5.4 3.4 87 1003.0 15.9 SE 20.6 0.0 0.0
02:57 5.4 3.2 86 1003.1 15.2 S 20.6 0.0 0.0
02:58 5.4 3.4 87 1003.1 13.6 SE 20.6 0.0 0.0
02:59 5.4 3.4 87 1003.1 13.6 SE 20.6 0.0 0.0
03:00 5.4 3.4 87 1003.1 13.6 SE 20.6 0.0 0.0
03:01 5.4 3.4 87 1003.1 9.8 SE 20.6 0.0 0.0
03:02 5.4 3.4 87 1003.1 18.3 SE 20.6 0.0 0.0
03:03 5.5 3.5 87 1002.9 11.4 S 20.6 0.0 0.0
03:04 5.5 3.5 87 1002.8 11.4 SE 18.3 0.0 0.0
03:05 5.5 3.5 87 1002.8 13.6 SE 18.3 0.0 0.0
03:06 5.5 3.5 87 1003.0 13.6 SE 18.3 0.0 0.0
03:07 5.5 3.5 87 1002.7 15.2 S 18.3 0.0 0.0
03:08 5.5 3.5 87 1002.9 13.6 SE 18.3 0.0 0.0
03:09 5.5 3.5 87 1002.8 15.2 SE 18.3 0.0 0.0
03:10 5.5 3.5 87 1002.8 12.1 SE 18.3 0.0 0.0
03:12 5.5 3.5 87 1002.7 13.6 SE 18.3 0.0 0.0
03:13 5.5 3.5 87 1002.8 17.4 SE 17.4 0.0 0.0
03:14 5.5 3.5 87 1002.7 17.4 NNW 17.4 0.0 0.0
03:15 5.5 3.5 87 1002.6 10.7 SE 17.4 0.0 0.0
03:16 5.5 3.5 87 1002.5 19.0 E 19.0 0.0 0.0
03:17 5.5 3.5 87 1002.6 15.9 SE 19.0 0.0 0.0
03:18 5.5 3.5 87 1002.6 15.9 SE 19.0 0.0 0.0
03:19 5.5 3.5 87 1002.4 13.0 S 19.0 0.0 0.0
03:20 5.5 3.5 87 1002.5 15.2 SE 19.0 0.0 0.0
03:21 5.6 3.6 87 1002.6 20.6 SE 20.6 0.0 0.0
03:22 5.6 3.6 87 1002.4 15.2 SE 20.6 0.0 0.0
03:24 5.6 3.6 87 1002.4 13.0 SE 20.6 0.0 0.0
03:25 5.6 3.6 87 1002.5 15.2 SE 20.6 0.0 0.0
03:26 5.6 3.6 87 1002.5 16.8 S 20.6 0.0 0.0
03:27 5.6 3.6 87 1002.4 14.5 S 20.6 0.0 0.0
03:28 5.6 3.6 87 1002.4 14.5 SE 20.6 0.0 0.0
03:29 5.6 3.6 87 1002.3 14.5 SE 20.6 0.0 0.0
03:30 5.6 3.6 87 1002.3 13.6 WNW 20.6 0.0 0.0
03:31 5.6 3.6 87 1002.2 12.1 SE 20.6 0.0 0.0
03:32 5.6 3.6 87 1002.3 10.7 SE 19.0 0.0 0.0
03:33 5.6 3.6 87 1002.2 12.1 S 17.4 0.0 0.0
03:34 5.6 3.6 87 1002.2 19.7 SE 19.7 0.0 0.0
03:35 5.6 3.6 87 1002.2 12.1 SE 19.7 0.0 0.0
03:36 5.6 3.6 87 1002.2 14.5 SE 19.7 0.0 0.0
03:37 5.6 3.6 87 1002.1 12.1 SE 19.7 0.0 0.0
03:38 5.5 3.5 87 1002.1 17.4 E 19.7 0.0 0.0
03:39 5.6 3.6 87 1001.9 21.3 SE 21.3 0.0 0.0
03:40 5.6 3.8 88 1002.0 19.7 SE 21.3 0.0 0.0
03:41 5.6 3.8 88 1002.2 15.9 SE 21.3 0.0 0.0
03:43 5.6 3.8 88 1002.2 14.5 SE 21.3 0.0 0.0
03:44 5.6 3.8 88 1002.1 12.1 SE 21.3 0.0 0.0
03:45 5.7 3.9 88 1002.0 22.1 SE 22.1 0.0 0.0
03:46 5.7 3.9 88 1001.9 22.8 S 22.8 0.0 0.0
03:47 5.6 3.8 88 1001.8 17.4 SE 22.8 0.0 0.0
03:48 5.7 3.9 88 1002.1 21.3 SE 22.8 0.0 0.0
03:49 5.7 3.9 88 1002.0 24.4 SE 24.4 0.0 0.0
03:50 5.7 3.9 88 1001.9 16.8 SE 24.4 0.0 0.0
03:51 5.7 3.9 88 1002.0 16.8 SE 24.4 0.0 0.0
03:52 5.7 3.9 88 1001.7 15.9 SE 24.4 0.0 0.0
03:53 5.7 3.9 88 1001.6 19.0 SE 24.4 0.0 0.0
03:54 5.7 3.9 88 1001.6 13.6 SE 24.4 0.0 0.0
03:55 5.7 3.9 88 1001.7 16.8 SE 24.4 0.0 0.0
03:56 5.7 3.9 88 1001.6 17.4 SE 24.4 0.0 0.0
03:57 5.7 3.9 88 1001.6 14.5 SE 24.4 0.0 0.0
03:58 5.7 3.9 88 1001.6 18.3 SE 24.4 0.0 0.0
03:59 5.7 3.9 88 1001.6 15.9 SE 22.8 0.0 0.0
04:01 5.7 4.0 89 1001.6 16.8 SE 22.8 0.0 0.0
04:02 5.8 4.1 89 1001.5 14.5 SE 22.8 0.0 0.0
04:03 5.7 4.0 89 1001.6 13.6 SE 19.0 0.0 0.0
04:04 5.7 4.0 89 1001.5 11.4 SE 18.3 0.0 0.0
04:05 5.7 4.0 89 1001.6 17.4 SE 18.3 0.0 0.0
04:06 5.8 4.1 89 1001.4 15.9 SE 19.7 0.0 0.0
04:07 5.8 4.1 89 1001.4 19.0 SE 19.7 0.0 0.0
04:08 5.8 4.1 89 1001.4 17.4 SE 22.1 0.0 0.0
04:10 5.8 4.1 89 1001.5 15.2 SE 22.1 0.0 0.0
04:11 5.8 4.1 89 1001.3 12.1 SE 22.1 0.0 0.0
04:12 5.8 4.1 89 1001.3 15.9 SE 22.1 0.0 0.0
04:13 5.8 4.1 89 1001.2 16.8 SE 22.1 0.0 0.0
04:14 5.8 4.1 89 1001.2 18.3 SE 22.1 0.0 0.0
04:15 5.9 4.2 89 1001.2 19.7 SE 22.1 0.0 0.0
04:16 5.9 4.2 89 1001.2 19.7 SE 22.1 0.0 0.0
04:17 5.9 4.4 90 1001.2 19.7 SE 22.1 0.0 0.0
04:18 5.9 4.4 90 1001.3 13.6 S 20.6 0.0 0.0
04:19 5.9 4.4 90 1001.0 14.5 S 20.6 0.0 0.0
04:20 5.9 4.4 90 1001.2 13.6 SE 20.6 0.0 0.0
04:21 5.9 4.4 90 1001.0 18.3 S 20.6 0.0 0.0
04:23 5.9 4.4 90 1001.2 17.4 SE 22.8 0.0 0.0
04:24 5.9 4.4 90 1001.1 22.1 SE 22.8 0.0 0.0
04:25 6.0 4.5 90 1001.2 22.8 SE 22.8 0.0 0.0
04:26 6.0 4.5 90 1001.0 22.8 SE 22.8 0.0 0.0
04:27 6.0 4.5 90 1001.0 20.6 SE 22.8 0.0 0.0
04:28 6.0 4.5 90 1001.0 13.6 S 22.8 0.0 0.0
04:29 6.0 4.5 90 1001.0 20.6 SE 22.8 0.0 0.0
04:31 6.0 4.6 91 1001.0 22.1 SE 23.5 0.8 0.1
04:32 5.9 4.5 91 1001.0 25.1 WNW 25.1 0.8 0.1
04:33 5.9 4.5 91 1000.8 21.3 S 25.1 0.8 0.1
04:34 5.9 4.5 91 1000.8 15.9 SE 25.1 0.8 0.1
04:35 5.9 4.5 91 1000.9 15.9 SE 25.1 0.8 0.1
04:36 5.9 4.5 91 1000.8 14.5 SE 25.1 0.0 0.1
04:37 5.9 4.7 92 1000.9 13.0 S 25.1 0.0 0.1
04:38 5.8 4.6 92 1000.9 20.6 S 25.1 0.8 0.1
04:39 5.8 4.6 92 1000.7 19.0 SE 25.1 0.8 0.1
04:41 5.8 4.6 92 1000.8 23.5 SE 25.1 0.8 0.1
04:42 5.8 4.6 92 1000.7 22.1 E 25.1 0.8 0.1
04:43 5.8 4.6 92 1000.7 21.3 SE 25.1 0.0 0.1
04:44 5.7 4.7 93 1000.8 12.1 SE 25.1 0.0 0.1
04:45 5.7 4.7 93 1000.7 15.2 SE 25.1 0.0 0.1
04:46 5.7 4.7 93 1000.7 15.2 SE 25.1 0.0 0.1
04:47 5.7 4.7 93 1000.7 18.3 SE 25.1 0.8 0.2
04:48 5.7 4.7 93 1000.7 19.0 SW 25.1 0.8 0.2
04:49 5.7 4.7 93 1000.5 17.4 SE 23.5 0.8 0.2
04:50 5.7 4.7 93 1000.7 19.7 SE 23.5 0.8 0.3
04:51 5.7 4.8 94 1000.7 16.8 S 23.5 1.5 0.3
04:52 5.6 4.7 94 1000.5 18.3 SE 21.3 0.8 0.3
04:53 5.7 4.8 94 1000.5 16.8 SE 19.7 0.8 0.3
04:54 5.7 4.8 94 1000.5 18.3 SE 19.7 1.5 0.3
04:55 5.6 4.7 94 1000.6 22.1 WNW 25.9 1.5 0.3
04:56 5.6 4.7 94 1000.7 22.8 WNW 25.9 0.8 0.4
04:57 5.6 4.9 95 1000.4 17.4 SE 25.9 1.5 0.4
04:59 5.6 4.9 95 1000.6 20.6 SE 25.9 0.8 0.4
05:00 5.6 4.9 95 1000.6 20.6 SE 25.9 0.8 0.4
05:01 5.6 5.0 96 1000.5 22.8 WNW 25.9 0.8 0.4
05:02 5.6 5.0 96 1000.5 17.4 SE 25.9 0.0 0.4
05:03 5.6 5.0 96 1000.7 17.4 SE 25.9 0.8 0.4
05:04 5.6 5.0 96 1000.5 21.3 SE 25.9 0.8 0.4
05:05 5.6 5.0 96 1000.4 18.3 SE 25.9 0.8 0.4
05:06 5.6 5.0 96 1000.5 18.3 SE 23.5 0.8 0.5
05:07 5.6 5.0 96 1000.4 19.7 SE 23.5 1.5 0.5
05:08 5.6 5.0 96 1000.5 17.4 SE 23.5 0.8 0.5
05:09 5.5 4.9 96 1000.4 23.5 NNW 23.5 0.8 0.5
05:10 5.5 4.9 96 1000.5 19.7 SE 23.5 0.8 0.5
05:11 5.5 5.1 97 1000.4 22.1 SE 23.5 0.8 0.6
05:12 5.5 5.1 97 1000.5 27.3 NNW 27.3 0.8 0.6
05:13 5.5 5.1 97 1000.4 25.9 SE 27.3 0.8 0.6
05:14 5.5 5.1 97 1000.3 22.8 SE 27.3 0.8 0.6
05:15 5.5 5.1 97 1000.3 28.2 SE 28.2 0.8 0.6
05:17 5.5 5.1 97 1000.4 20.6 SE 28.2 0.8 0.6
05:18 5.5 5.1 97 1000.5 19.7 SE 28.2 0.8 0.6
05:19 5.5 5.1 97 1000.5 18.3 E 28.2 0.8 0.6
05:20 5.5 5.1 97 1000.5 23.5 S 28.2 0.8 0.6
05:21 5.5 5.1 97 1000.4 21.3 SE 28.2 0.8 0.7
05:22 5.5 5.2 98 1000.4 15.9 SE 28.2 0.8 0.7
05:23 5.5 5.2 98 1000.4 25.1 SE 28.2 1.5 0.8
05:24 5.5 5.2 98 1000.5 18.3 SE 28.2 1.5 0.8
05:25 5.5 5.2 98 1000.4 20.6 SE 28.2 1.5 0.8
05:26 5.5 5.2 98 1000.4 19.7 SE 25.1 1.5 0.8
05:27 5.5 5.2 98 1000.4 17.4 E 25.1 1.5 0.9
05:28 5.5 5.2 98 1000.4 15.2 SE 25.1 1.5 0.9
05:29 5.5 5.2 98 1000.1 19.7 SE 25.1 1.5 0.9
05:30 5.5 5.2 98 1000.2 16.8 SE 25.1 1.5 0.9
05:31 5.5 5.2 98 1000.2 19.0 SE 25.1 1.5 0.9
05:32 5.5 5.2 98 1000.4 19.0 SE 25.1 1.5 0.9
05:33 5.5 5.2 98 1000.1 19.7 SE 22.1 0.8 1.0
05:35 5.5 5.2 98 1000.2 17.4 SE 22.1 1.5 1.0
05:36 5.5 5.4 99 1000.3 21.3 SE 22.1 1.5 1.1
05:37 5.5 5.4 99 1000.2 22.8 SE 25.9 1.5 1.1
05:38 5.5 5.4 99 1000.4 19.0 SE 25.9 1.5 1.1
05:39 5.5 5.4 99 1000.1 15.2 SE 25.9 1.5 1.1
05:40 5.5 5.4 99 1000.0 17.4 SE 25.9 1.5 1.1
05:41 5.5 5.4 99 1000.1 22.1 SE 25.9 0.8 1.1
05:42 5.5 5.4 99 1000.2 16.8 SE 25.9 0.8 1.2
05:43 5.5 5.4 99 1000.2 19.0 S 25.9 1.5 1.2
05:44 5.5 5.4 99 1000.2 17.4 SE 25.9 1.5 1.3
05:45 5.5 5.4 99 1000.2 14.5 S 25.9 1.5 1.3
05:46 5.5 5.4 99 1000.2 20.6 S 25.9 1.5 1.3
05:47 5.4 5.3 99 1000.1 22.8 SE 22.8 2.3 1.3
05:48 5.5 5.4 99 1000.2 25.1 WNW 25.1 1.5 1.3
05:49 5.5 5.4 99 1000.1 15.9 SE 25.1 0.8 1.4
05:50 5.5 5.4 99 1000.2 18.3 SE 25.1 1.5 1.4
05:51 5.5 5.4 99 1000.1 21.3 SE 25.1 1.5 1.4
05:52 5.5 5.4 99 1000.1 20.6 SE 25.1 1.5 1.4
05:54 5.5 5.4 99 1000.0 21.3 SE 25.1 1.5 1.5
05:55 5.5 5.4 99 999.9 17.4 SE 25.1 1.5 1.5
05:56 5.5 5.4 99 1000.1 15.2 N 25.1 2.3 1.6
05:57 5.4 5.3 99 1000.0 17.4 SE 25.1 1.5 1.6
05:58 5.5 5.4 99 999.7 21.3 SE 25.1 1.5 1.6
05:59 5.5 5.4 99 999.9 16.8 SE 21.3 2.3 1.6
06:00 5.5 5.4 99 1000.0 16.8 SE 21.3 1.5 1.6
06:01 5.4 5.3 99 999.8 24.4 SE 24.4 0.8 1.6
06:02 5.4 5.3 99 999.9 21.3 SE 24.4 0.8 1.6
06:03 5.4 5.3 99 999.8 25.9 SE 25.9 1.5 1.7
06:04 5.4 5.3 99 999.8 23.5 SE 25.9 0.8 1.7
06:05 5.4 5.3 99 999.7 21.3 SE 25.9 0.8 1.7
06:06 5.4 5.3 99 999.8 18.3 W 25.9 0.8 1.7
06:07 5.4 5.3 99 999.8 13.6 SE 25.9 0.8 1.7
06:09 5.4 5.3 99 999.7 19.7 SE 25.9 0.8 1.8
06:10 5.4 5.3 99 1000.0 19.0 SE 25.9 0.8 1.8
06:11 5.4 5.3 99 999.7 17.4 S 25.9 0.8 1.8
06:13 5.5 5.4 99 999.7 14.5 SSE 25.9 0.8 1.8
06:14 5.5 5.4 99 999.6 20.6 SE 23.5 0.0 1.8
06:15 5.5 5.4 99 999.7 16.8 SE 21.3 0.8 1.8
06:16 5.5 5.4 99 999.6 19.7 SE 20.6 0.8 1.8
06:17 5.5 5.4 99 999.8 16.8 SE 20.6 0.8 1.8
06:18 5.5 5.4 99 999.7 23.5 SE 23.5 0.8 1.8
06:19 5.5 5.4 99 999.8 16.8 SE 23.5 0.8 1.8
06:20 5.5 5.4 99 999.7 20.6 SE 23.5 0.0 1.8
06:21 5.5 5.4 99 999.8 25.1 SE 25.1 0.0 1.8
06:22 5.5 5.4 99 999.8 15.2 SE 25.1 0.0 1.9
06:23 5.5 5.4 99 999.7 25.1 SE 25.1 0.8 1.9
06:24 5.5 5.4 99 999.7 16.8 S 25.1 0.8 1.9
06:25 5.5 5.4 99 999.8 18.3 SE 25.1 0.8 1.9
06:26 5.5 5.4 99 999.7 20.6 SE 25.1 0.8 1.9
06:27 5.5 5.4 99 999.7 20.6 SE 25.1 0.8 2.0
06:29 5.5 5.4 99 999.7 19.0 SE 25.1 0.8 2.0
06:30 5.5 5.4 99 999.6 18.3 SE 25.1 0.8 2.0
06:31 5.5 5.4 99 999.6 22.8 SE 25.1 0.8 2.0
06:32 5.6 5.5 99 999.6 22.8 S 25.1 1.5 2.0
06:33 5.6 5.5 99 999.6 19.0 SE 25.1 0.8 2.0
06:34 5.6 5.5 99 999.5 14.5 E 24.4 0.8 2.0
06:35 5.6 5.5 99 999.5 25.1 SE 25.1 0.8 2.0
06:36 5.6 5.5 99 999.5 17.4 SE 25.1 0.8 2.1
06:37 5.6 5.5 99 999.4 23.5 SE 25.1 0.8 2.1
06:38 5.6 5.5 99 999.5 22.1 S 25.1 0.8 2.1
06:39 5.6 5.5 99 999.7 22.8 SE 25.1 0.8 2.1
06:40 5.6 5.5 99 999.5 19.7 SE 25.1 1.5 2.1
06:41 5.6 5.5 99 999.5 18.3 S 25.1 1.5 2.1
06:42 5.6 5.5 99 999.4 18.3 S 25.1 0.8 2.2
06:44 5.6 5.5 99 999.5 19.7 SW 25.1 1.5 2.2
06:45 5.7 5.6 99 999.6 18.3 SE 25.1 0.8 2.3
06:46 5.6 5.5 99 999.5 22.1 SE 23.5 1.5 2.3
06:47 5.6 5.5 99 999.7 16.8 SE 23.5 1.5 2.3
06:48 5.7 5.6 99 999.5 21.3 SE 22.8 0.8 2.3
06:49 5.7 5.6 99 999.5 17.4 SE 26.6 0.8 2.3
06:50 5.7 5.6 99 999.5 20.6 SE 26.6 1.5 2.3
06:51 5.7 5.6 99 999.7 25.1 E 26.6 0.8 2.3
06:52 5.7 5.6 99 999.7 24.4 SE 26.6 0.8 2.4
06:53 5.7 5.6 99 999.7 18.3 SE 26.6 1.5 2.4
06:54 5.7 5.6 99 999.7 23.5 SE 26.6 1.5 2.4
06:55 5.7 5.6 99 999.6 20.6 SE 26.6 0.8 2.4
06:56 5.7 5.6 99 999.6 20.6 E 26.6 0.8 2.5
06:57 5.7 5.6 99 999.6 19.0 SE 26.6 1.5 2.5
06:59 5.7 5.6 99 999.7 18.3 SE 25.1 1.5 2.5
07:00 5.7 5.6 99 999.7 18.3 SE 25.1 1.5 2.5
07:01 5.7 5.6 99 999.6 18.3 SE 25.1 1.5 2.5
07:02 5.7 5.6 99 999.5 15.9 SE 25.1 0.8 2.6
07:03 5.7 5.6 99 999.6 15.9 SE 25.1 1.5 2.6
07:04 5.7 5.6 99 999.5 17.4 SE 25.1 0.8 2.6
07:05 5.7 5.6 99 999.4 25.1 S 25.1 1.5 2.6
07:06 5.7 5.6 99 999.4 23.5 W 25.1 1.5 2.6
07:07 5.7 5.6 99 999.4 16.8 SE 25.1 1.5 2.6
07:08 5.7 5.6 99 999.4 22.1 WNW 25.1 0.8 2.6
07:09 5.7 5.6 99 999.4 24.4 SE 25.1 1.5 2.7
07:10 5.7 5.6 99 999.4 20.6 SE 25.1 0.8 2.7
07:11 5.7 5.6 99 999.4 20.6 S 25.1 0.8 2.7
07:12 5.7 5.6 99 999.5 23.5 SE 25.1 0.8 2.7
07:13 5.7 5.6 99 999.4 21.3 SE 25.1 1.5 2.8
07:14 5.7 5.6 99 999.4 18.3 SE 25.1 0.8 2.8
07:15 5.7 5.6 99 999.3 23.5 SE 25.1 0.8 2.8
07:16 5.7 5.6 99 999.4 29.8 SE 29.8 1.5 2.8
07:17 5.7 5.6 99 999.5 20.6 SE 29.8 1.5 2.8
07:18 5.7 5.6 99 999.4 22.1 SE 29.8 0.8 2.8
07:19 5.7 5.6 99 999.4 15.9 SE 29.8 1.5 2.9
07:20 5.7 5.6 99 999.4 15.9 SE 29.8 1.5 2.9
07:21 5.7 5.6 99 999.4 17.4 SE 29.8 0.8 2.9
07:22 5.7 5.6 99 999.5 15.9 SE 29.8 0.8 2.9
07:23 5.7 5.6 99 999.4 15.2 SE 29.8 1.5 3.0
07:24 5.7 5.6 99 999.4 15.2 SE 29.8 0.8 3.0
07:25 5.7 5.6 99 999.5 20.6 SE 29.8 0.8 3.0
07:26 5.7 5.6 99 999.4 19.0 SE 22.1 0.8 3.1
07:27 5.7 5.6 99 999.6 22.1 SE 22.1 2.3 3.1
07:28 5.7 5.6 99 999.6 22.1 SE 22.1 1.5 3.1
07:29 5.7 5.6 99 999.6 18.3 SE 22.1 2.3 3.1
07:30 5.7 5.6 99 999.5 19.7 SE 22.1 2.3 3.2
07:31 5.7 5.6 99 999.6 22.1 SE 22.1 3.0 3.2
07:32 5.7 5.6 99 999.4 22.1 SE 22.1 1.5 3.3
07:33 5.7 5.6 99 999.5 17.4 SE 22.1 2.3 3.3
07:34 5.7 5.6 99 999.5 19.7 SE 22.1 2.3 3.4
07:35 5.7 5.6 99 999.6 15.2 SE 22.1 3.0 3.4
07:36 5.7 5.6 99 999.5 19.7 SE 22.1 2.3 3.5
07:37 5.7 5.6 99 999.4 19.0 SE 22.1 3.0 3.5
07:38 5.7 5.6 99 999.4 13.6 SE 25.9 2.3 3.5
07:39 5.7 5.6 99 999.4 20.6 SE 25.9 2.3 3.6
07:40 5.7 5.6 99 999.3 12.1 SE 25.9 2.3 3.6
07:41 5.7 5.6 99 999.3 18.3 SE 25.9 2.3 3.7
07:42 5.7 5.6 99 999.3 13.6 E 25.9 2.3 3.7
07:43 5.7 5.6 99 999.2 14.5 SE 25.9 3.0 3.7
07:44 5.6 5.5 99 999.2 19.0 SE 25.9 2.3 3.7
07:45 5.7 5.6 99 999.3 15.9 SE 25.9 1.5 3.7
07:46 5.7 5.6 99 999.3 22.1 SE 25.9 1.5 3.8
07:47 5.7 5.6 99 999.1 17.4 SE 25.9 1.5 3.8
07:48 5.7 5.6 99 999.2 14.5 SE 22.1 0.8 3.8
07:49 5.7 5.6 99 999.4 13.0 S 22.1 1.5 3.8
07:50 5.7 5.6 99 999.2 18.3 NE 22.1 1.5 3.8
07:51 5.7 5.6 99 999.1 19.0 SE 22.1 1.5 3.9
07:52 5.7 5.6 99 999.2 22.1 SE 22.1 1.5 3.9
07:53 5.7 5.6 99 999.2 18.3 SE 22.1 1.5 3.9
07:54 5.7 5.6 99 999.1 19.7 SE 22.1 0.8 4.0
07:55 5.7 5.6 99 999.2 14.5 SE 22.1 1.5 4.0
07:56 5.7 5.6 99 999.1 13.0 SE 22.1 1.5 4.0
07:57 5.7 5.6 99 999.1 13.0 SE 22.1 0.8 4.0
07:58 5.7 5.6 99 999.2 19.0 SE 22.1 0.8 4.0
07:59 5.7 5.6 99 998.9 19.0 SE 22.1 1.5 4.0
08:00 5.8 5.7 99 999.0 16.8 E 22.1 0.8 4.0
08:01 5.8 5.7 99 998.9 17.4 S 22.1 0.8 4.1
08:02 5.8 5.7 99 999.1 14.5 S 22.1 1.5 4.1
08:03 5.8 5.7 99 998.9 15.9 SE 19.7 1.5 4.2
08:04 5.8 5.7 99 998.9 14.5 SE 19.7 1.5 4.2
08:05 5.8 5.7 99 998.9 16.8 SE 19.0 1.5 4.2
08:06 5.8 5.7 99 999.0 19.7 NNW 20.6 1.5 4.2
08:07 5.8 5.7 99 998.7 23.5 SE 23.5 1.5 4.3
08:09 5.8 5.7 99 999.0 16.8 SE 23.5 1.5 4.3
08:10 5.9 5.8 99 998.9 18.3 SE 23.5 1.5 4.3
08:12 5.8 5.7 99 999.0 15.2 SE 23.5 1.5 4.3
08:14 5.9 5.8 99 998.9 14.5 SE 23.5 1.5 4.4
08:15 5.9 5.8 99 998.7 23.5 SE 24.4 1.5 4.4
08:17 5.9 5.8 99 998.8 16.8 SE 24.4 0.8 4.5
08:19 5.9 5.8 99 998.7 19.0 SE 24.4 0.8 4.5
08:21 5.9 5.8 99 998.8 15.2 SE 24.4 0.8 4.5
08:22 5.9 5.8 99 998.6 21.3 SE 24.4 1.5 4.5
08:23 5.9 5.8 99 998.7 22.8 SE 24.4 0.8 4.5
08:24 5.9 5.8 99 998.7 18.3 SE 24.4 1.5 4.6
08:25 5.9 5.8 99 998.6 15.9 SE 24.4 1.5 4.6
08:26 6.0 5.9 99 998.6 20.6 SE 23.5 1.5 4.6
08:27 6.0 5.9 99 998.5 19.7 S 23.5 0.8 4.6
08:28 6.0 5.9 99 998.5 16.8 SE 23.5 1.5 4.7
08:29 6.0 5.9 99 998.5 22.8 S 23.5 0.8 4.7
08:30 6.0 5.9 99 998.4 17.4 SE 22.8 1.5 4.7
08:31 6.0 5.9 99 998.4 19.0 SE 22.8 1.5 4.7
08:32 6.0 5.9 99 998.5 15.2 SE 22.8 1.5 4.7
08:33 6.0 5.9 99 998.6 21.3 SE 22.8 1.5 4.8
08:34 6.1 6.0 99 998.5 20.6 S 22.8 1.5 4.9
08:35 6.1 6.0 99 998.5 18.3 SE 22.8 1.5 4.9
08:36 6.1 6.0 99 998.4 23.5 SE 23.5 1.5 4.9
08:37 6.1 6.0 99 998.4 22.1 S 23.5 2.3 4.9
08:39 6.1 6.0 99 998.3 24.4 SE 24.4 2.3 5.0
08:41 6.1 6.0 99 998.4 25.1 E 25.1 2.3 5.0
08:42 6.1 6.0 99 998.3 16.8 SE 25.1 1.5 5.1
08:43 6.1 6.0 99 998.2 15.2 SE 25.1 2.3 5.1
08:44 6.1 6.0 99 998.5 14.5 E 25.1 1.5 5.1
08:45 6.2 6.1 99 998.5 21.3 SE 25.1 0.8 5.2
08:46 6.2 6.1 99 998.4 16.8 SE 25.1 1.5 5.2
08:47 6.2 6.1 99 998.5 18.3 SE 25.1 1.5 5.2
08:48 6.2 6.1 99 998.5 21.3 SE 25.1 1.5 5.2
08:49 6.2 6.1 99 998.4 24.4 SSW 25.1 1.5 5.2
08:50 6.2 6.1 99 998.4 21.3 SE 25.1 1.5 5.2
08:51 6.2 6.1 99 998.4 21.3 SE 24.4 1.5 5.3
08:52 6.3 6.2 99 998.5 13.6 SE 24.4 1.5 5.3
08:53 6.3 6.2 99 998.4 19.7 SE 24.4 0.8 5.3
08:54 6.3 6.2 99 998.5 22.1 S 24.4 0.8 5.4
08:56 6.3 6.2 99 998.4 16.8 SE 24.4 0.8 5.4
08:58 6.3 6.2 99 998.4 19.0 SE 24.4 0.8 5.4
08:59 6.4 6.3 99 998.4 21.3 SE 24.4 0.8 5.4
09:01 6.4 6.3 99 998.4 21.3 SE 22.1 0.0 5.4
09:03 6.4 6.3 99 998.3 21.3 SE 22.1 0.0 5.4
09:04 6.4 6.3 99 998.5 19.0 S 22.1 1.5 5.5
09:05 6.4 6.3 99 998.4 16.8 SE 22.1 1.5 5.5
09:06 6.5 6.4 99 998.4 22.1 SE 22.1 2.3 5.5
09:07 6.5 6.4 99 998.4 22.8 SE 22.8 2.3 5.5
09:08 6.5 6.4 99 998.4 15.9 SE 22.8 3.0 5.6
09:09 6.5 6.4 99 998.3 12.1 SE 22.8 1.5 5.6
09:10 6.5 6.4 99 998.3 17.4 SE 22.8 1.5 5.6
09:11 6.5 6.4 99 998.3 16.8 E 22.8 1.5 5.7
09:12 6.5 6.4 99 998.3 18.3 SE 22.8 1.5 5.7
09:13 6.6 6.5 99 998.3 15.2 SE 22.8 1.5 5.7
09:15 6.6 6.5 99 998.1 16.8 E 22.8 3.0 5.9
09:17 6.6 6.5 99 998.3 10.7 SE 22.8 2.3 5.9
09:18 6.6 6.5 99 998.3 22.1 SE 22.1 2.3 5.9
09:19 6.6 6.5 99 998.3 15.2 SE 22.1 3.0 6.0
09:20 6.6 6.5 99 998.2 19.7 SE 22.1 2.3 6.0
09:21 6.6 6.5 99 998.3 19.0 SE 22.1 2.3 6.1
09:22 6.7 6.6 99 998.2 17.4 NE 22.1 3.0 6.2
09:23 6.6 6.5 99 998.3 14.5 S 22.1 3.0 6.2
09:24 6.7 6.6 99 998.0 14.5 SE 22.1 3.0 6.2
09:25 6.7 6.6 99 998.2 13.6 SE 22.1 2.3 6.3
09:26 6.7 6.6 99 998.1 20.6 SE 22.1 3.0 6.3
09:27 6.7 6.6 99 998.0 17.4 SE 22.1 3.0 6.4
09:28 6.7 6.6 99 998.0 22.8 SE 22.8 2.3 6.4
09:29 6.8 6.7 99 998.1 14.5 SE 22.8 2.3 6.4
09:30 6.8 6.7 99 998.2 14.5 SE 22.8 2.3 6.5
09:31 6.8 6.7 99 998.0 14.5 SE 22.8 2.3 6.5
09:32 6.9 6.8 99 997.9 11.4 SE 22.8 1.5 6.6
09:33 6.8 6.7 99 997.9 11.4 SE 22.8 2.3 6.6
09:34 6.9 6.8 99 998.0 15.9 E 22.8 1.5 6.6
09:35 6.9 6.8 99 997.9 18.3 SE 22.8 2.3 6.6
09:36 6.9 6.8 99 997.9 15.2 SE 22.8 2.3 6.7
09:38 7.0 6.9 99 998.1 16.8 S 22.8 2.3 6.7
09:39 7.0 6.9 99 997.9 15.2 NW 18.3 3.0 6.8
09:40 7.1 7.0 99 997.8 17.4 NNE 18.3 3.0 6.9
09:41 7.1 7.0 99 997.9 19.7 SE 19.7 2.3 6.9
09:42 7.1 7.0 99 997.9 11.4 SSW 19.7 1.5 6.9
09:43 7.1 7.0 99 997.7 11.4 S 19.7 2.3 6.9
09:44 7.1 7.0 99 997.8 15.2 SE 19.7 2.3 7.0
09:45 7.2 7.1 99 997.8 15.9 SE 19.7 1.5 7.0
09:47 7.2 7.1 99 997.8 14.5 SE 19.7 2.3 7.1
09:48 7.2 7.1 99 997.8 19.7 SE 19.7 2.3 7.1
09:49 7.2 7.1 99 997.9 17.4 SE 19.7 1.5 7.2
09:50 7.3 7.2 99 997.8 15.9 SE 19.7 2.3 7.2
09:51 7.4 7.3 99 997.8 14.5 S 19.7 2.3 7.2
09:52 7.3 7.2 99 997.8 13.6 SE 19.7 2.3 7.2
09:53 7.3 7.2 99 997.7 19.0 SE 19.7 1.5 7.3
09:54 7.3 7.2 99 997.7 21.3 SE 21.3 2.3 7.3
09:55 7.4 7.3 99 997.7 18.3 SE 21.3 1.5 7.3
09:56 7.4 7.3 99 997.8 11.4 SW 21.3 2.3 7.4
09:57 7.4 7.3 99 997.8 15.9 SE 21.3 1.5 7.4
09:58 7.4 7.3 99 997.6 19.7 WNW 21.3 1.5 7.4
10:00 7.4 7.3 99 997.5 18.3 N 21.3 2.3 7.5
10:01 7.5 7.4 99 997.4 18.3 SE 21.3 1.5 7.5
10:02 7.5 7.4 99 997.3 13.6 SE 21.3 1.5 7.5
10:03 7.5 7.4 99 997.2 17.4 S 21.3 2.3 7.6
10:04 7.5 7.4 99 997.3 10.7 SE 21.3 1.5 7.6
10:05 7.6 7.5 99 997.4 13.0 SE 19.7 1.5 7.6
10:06 7.6 7.5 99 997.3 14.5 SE 19.7 1.5 7.6
10:07 7.6 7.5 99 997.4 11.4 NW 19.7 1.5 7.6
10:08 7.6 7.5 99 997.4 16.8 E 19.7 1.5 7.7
10:09 7.6 7.5 99 997.2 18.3 SE 18.3 1.5 7.7
10:10 7.7 7.6 99 997.3 20.6 SE 20.6 0.8 7.7
10:12 7.7 7.6 99 997.3 15.9 SE 20.6 1.5 7.8
10:13 7.8 7.7 99 997.3 14.5 S 20.6 1.5 7.8
10:15 7.8 7.7 99 997.3 12.1 S 20.6 1.5 7.8
10:16 7.8 7.7 99 997.3 15.9 S 20.6 0.8 7.8
10:17 7.9 7.8 99 997.3 13.6 SE 20.6 1.5 7.9
10:18 7.9 7.8 99 997.3 19.7 S 20.6 0.8 7.9
10:19 7.9 7.8 99 997.4 16.8 E 20.6 0.8 7.9
10:20 8.0 7.9 99 997.2 19.0 SE 22.8 0.8 7.9
10:21 8.0 7.9 99 997.2 19.7 SE 22.8 0.8 7.9
10:22 8.0 7.9 99 997.4 14.5 SE 22.8 0.0 7.9
10:23 7.9 7.8 99 997.2 18.3 S 22.8 0.0 7.9
10:24 8.0 7.9 99 997.1 14.5 S 22.8 0.8 7.9
10:25 8.1 8.0 99 997.1 13.0 SE 22.8 0.8 7.9
10:26 8.1 8.0 99 997.0 18.3 SE 22.8 0.8 8.0
10:27 8.1 8.0 99 997.0 15.2 SE 22.8 1.5 8.0
10:28 8.1 8.0 99 997.0 15.9 SE 22.8 1.5 8.0
10:29 8.2 8.1 99 997.0 20.6 SE 22.8 0.8 8.0
10:30 8.2 8.1 99 997.0 20.6 S 20.6 0.8 8.0
10:31 8.2 8.1 99 997.0 13.6 S 20.6 1.5 8.1
10:32 8.3 8.2 99 997.1 17.4 S 20.6 0.8 8.1
10:33 8.3 8.2 99 997.1 19.0 S 20.6 0.8 8.1
10:35 8.3 8.2 99 997.3 23.5 SE 23.5 1.5 8.1
10:36 8.4 8.3 99 997.2 13.6 SE 23.5 0.8 8.1
10:37 8.4 8.3 99 997.0 12.1 SE 23.5 0.8 8.1
10:38 8.4 8.3 99 997.2 16.8 SE 23.5 0.8 8.1
10:39 8.4 8.3 99 997.1 19.0 SE 23.5 0.8 8.1
10:40 8.5 8.4 99 997.2 18.3 S 23.5 0.0 8.1
10:41 8.5 8.4 99 997.1 19.7 S 23.5 0.0 8.1
10:42 8.5 8.4 99 997.0 13.0 S 23.5 0.0 8.1
10:43 8.5 8.4 99 997.0 15.2 SE 23.5 0.8 8.2
10:44 8.6 8.5 99 997.1 14.5 WSW 23.5 0.8 8.2
10:45 8.6 8.5 99 997.0 21.3 SE 23.5 0.8 8.2
10:46 8.6 8.5 99 996.8 22.1 SE 22.1 0.8 8.2
10:47 8.6 8.5 99 996.8 17.4 SE 22.1 0.8 8.2
10:48 8.6 8.5 99 996.7 15.2 SE 22.1 0.0 8.2
10:49 8.7 8.6 99 996.7 13.6 S 22.1 0.0 8.2
10:50 8.7 8.6 99 996.9 18.3 S 22.1 0.0 8.2
10:51 8.7 8.6 99 996.6 9.8 SE 22.1 0.0 8.2
10:52 8.7 8.6 99 996.7 9.2 SE 22.1 0.0 8.2
10:53 8.8 8.7 99 996.8 16.8 SE 22.1 0.8 8.3
10:54 8.8 8.7 99 996.9 15.9 SE 22.1 0.8 8.3
10:55 8.8 8.7 99 996.8 16.8 S 22.1 0.8 8.3
10:56 8.8 8.7 99 996.7 14.5 S 18.3 0.8 8.3
10:57 8.8 8.7 99 996.9 13.0 SE 18.3 0.8 8.3
10:58 8.8 8.7 99 996.9 12.1 S 18.3 0.0 8.3
10:59 8.9 8.8 99 996.9 15.9 SE 18.3 0.0 8.3
11:00 8.9 8.8 99 997.0 15.9 SE 16.8 0.0 8.3
11:01 8.9 8.8 99 996.9 15.9 SE 16.8 0.0 8.3
11:02 8.9 8.8 99 996.9 15.9 SE 16.8 0.0 8.3
11:03 8.9 8.8 99 996.9 15.9 SE 16.8 0.0 8.3
11:04 8.9 8.8 99 997.0 15.9 SE 16.8 0.0 8.3
11:05 9.1 9.0 99 997.0 12.1 S 16.8 0.0 8.3
11:06 9.1 9.0 99 997.1 13.6 SW 15.9 0.0 8.3
11:07 9.2 9.1 99 997.0 14.5 S 15.9 0.0 8.3
11:08 9.2 9.1 99 997.0 13.0 SE 15.9 0.0 8.3
11:09 9.2 9.1 99 997.0 16.8 S 16.8 0.0 8.3
11:10 9.3 9.2 99 997.1 19.0 S 19.0 0.0 8.3
11:11 9.3 9.2 99 997.0 14.5 NW 19.0 0.0 8.3
11:12 9.3 9.2 99 997.1 15.9 S 19.0 0.0 8.3
11:13 9.4 9.3 99 997.1 15.9 S 19.0 0.0 8.3
11:14 9.4 9.3 99 997.0 16.8 S 19.0 0.0 8.3
11:15 9.4 9.3 99 996.8 16.8 SE 19.0 0.8 8.3
11:16 9.4 9.3 99 996.9 17.4 S 19.0 0.8 8.3
11:17 9.5 9.4 99 996.9 15.2 S 19.0 0.8 8.3
11:18 9.5 9.4 99 996.9 16.8 SE 19.0 0.8 8.3
11:19 9.6 9.5 99 997.0 17.4 S 19.0 0.8 8.3
11:20 9.6 9.5 99 996.9 17.4 S 19.0 0.0 8.3
11:21 9.6 9.5 99 997.0 14.5 S 19.0 0.0 8.3
11:22 9.6 9.5 99 996.9 20.6 S 20.6 0.0 8.3
11:23 9.7 9.6 99 996.8 19.7 S 20.6 0.8 8.4
11:24 9.7 9.6 99 997.0 19.0 SE 20.6 0.8 8.4
11:25 9.7 9.6 99 997.0 20.6 SE 20.6 0.8 8.4
11:26 9.8 9.7 99 996.9 14.5 SE 20.6 0.8 8.4
11:27 9.8 9.7 99 997.0 14.5 S 20.6 0.8 8.4
11:28 9.8 9.7 99 997.0 13.0 SE 20.6 0.0 8.4
11:29 9.8 9.7 99 996.9 12.1 SE 20.6 0.0 8.4
11:30 9.9 9.8 99 996.9 17.4 S 20.6 0.0 8.4
11:31 9.9 9.8 99 996.9 13.0 S 20.6 0.0 8.4
11:32 9.9 9.8 99 996.9 18.3 S 20.6 0.0 8.4
11:33 9.9 9.8 99 996.9 15.2 W 20.6 0.0 8.4
11:34 10.0 9.9 99 996.9 14.5 NW 20.6 0.0 8.4
11:35 10.0 9.9 99 996.9 15.9 S 18.3 0.0 8.4
11:36 10.0 9.9 99 996.9 15.9 S 18.3 0.0 8.4
11:37 10.0 9.9 99 996.9 16.8 S 18.3 0.0 8.4
11:38 10.0 9.9 99 996.9 16.8 S 18.3 0.0 8.4
11:39 10.0 9.9 99 996.9 15.2 S 18.3 0.0 8.4
11:41 10.0 9.9 99 997.0 16.8 S 18.3 0.0 8.4
11:42 10.0 9.9 99 997.1 14.5 S 18.3 0.0 8.4
11:43 10.0 9.9 99 997.0 15.9 S 16.8 0.0 8.4
11:44 10.0 9.9 99 997.0 16.8 SE 16.8 0.0 8.4
11:45 10.1 10.0 99 997.0 15.9 S 16.8 0.0 8.4
11:46 10.0 9.9 99 997.0 15.9 S 16.8 0.0 8.4
11:47 10.0 9.9 99 997.0 17.4 SE 19.0 0.0 8.4
11:48 10.1 10.0 99 997.0 11.4 SE 19.0 0.0 8.4
11:49 10.1 10.0 99 996.9 16.8 S 19.0 0.0 8.4
11:50 10.1 10.0 99 996.9 15.2 SE 19.0 0.0 8.4
11:51 10.0 9.9 99 997.2 15.9 S 22.1 0.0 8.4
11:52 10.1 10.0 99 997.2 18.3 S 22.1 0.8 8.4
11:53 10.1 10.0 99 997.2 15.9 S 22.1 0.8 8.4
11:54 10.1 10.0 99 997.3 15.9 SE 22.1 0.8 8.4
11:55 10.1 10.0 99 997.2 16.8 S 22.1 0.8 8.4
11:56 10.2 10.1 99 997.1 16.8 S 22.1 0.8 8.4
11:57 10.1 10.0 99 997.2 14.5 WSW 22.1 0.0 8.4
11:58 10.2 10.1 99 997.2 15.2 WSW 22.1 0.0 8.4
11:59 10.2 10.1 99 997.2 10.7 S 22.1 0.0 8.4
12:00 10.2 10.1 99 997.2 10.7 S 22.1 0.0 8.4
12:01 10.3 10.2 99 997.3 15.2 S 18.3 0.0 8.4
12:02 10.3 10.2 99 997.2 13.0 SE 18.3 0.0 8.4
12:03 10.3 10.2 99 997.2 14.5 S 16.8 0.0 8.4
12:04 10.3 10.2 99 997.4 18.3 S 18.3 0.0 8.4
12:05 10.3 10.2 99 997.2 15.2 S 18.3 0.0 8.4
12:06 10.3 10.2 99 997.3 13.0 SE 18.3 0.0 8.4
12:07 10.4 10.3 99 997.1 13.0 S 18.3 0.0 8.4
12:08 10.3 10.2 99 997.2 13.0 S 18.3 0.0 8.4
12:10 10.4 10.3 99 997.3 12.1 WSW 18.3 0.0 8.4
12:11 10.4 10.3 99 997.3 13.0 S 18.3 0.0 8.4
12:13 10.4 10.3 99 997.3 12.1 S 18.3 0.0 8.4
12:14 10.5 10.4 99 997.3 13.6 S 15.2 0.0 8.4
12:15 10.5 10.4 99 997.3 13.0 S 13.6 0.0 8.4
12:16 10.5 10.4 99 997.4 10.7 W 13.6 0.0 8.4
12:18 10.5 10.4 99 997.2 9.8 S 13.6 0.8 8.5
12:19 10.5 10.4 99 997.2 12.1 W 13.6 0.8 8.5
12:20 10.5 10.4 99 997.3 10.7 WSW 13.6 0.8 8.5
12:21 10.5 10.4 99 997.3 12.1 S 13.6 0.8 8.5
12:22 10.5 10.4 99 997.1 11.4 S 13.6 0.8 8.5
12:23 10.4 10.3 99 997.1 11.4 S 13.6 0.0 8.5
12:24 10.5 10.4 99 996.9 9.2 S 13.6 0.0 8.5
12:25 10.4 10.3 99 997.1 13.6 S 13.6 0.0 8.5
12:26 10.5 10.4 99 997.2 12.1 S 13.6 0.0 8.5
12:27 10.5 10.4 99 997.1 12.1 WSW 13.6 0.0 8.5
12:28 10.5 10.4 99 996.9 10.7 S 13.6 0.0 8.5
12:29 10.5 10.4 99 997.1 11.4 S 13.6 0.0 8.5
12:30 10.5 10.4 99 997.1 11.4 W 13.6 0.0 8.5
12:31 10.5 10.4 99 997.0 14.5 S 14.5 0.0 8.5
12:32 10.5 10.4 99 997.0 13.6 SE 14.5 0.0 8.5
12:33 10.6 10.5 99 996.9 11.4 SE 14.5 0.0 8.5
12:34 10.5 10.4 99 997.1 12.1 S 14.5 0.0 8.5
12:35 10.6 10.5 99 997.1 10.7 S 14.5 0.0 8.5
12:36 10.6 10.5 99 996.8 13.0 S 14.5 0.0 8.5
12:37 10.6 10.5 99 997.0 13.0 S 14.5 0.0 8.5
12:38 10.6 10.5 99 997.1 11.4 WSW 14.5 0.0 8.5
12:39 10.6 10.5 99 997.2 14.5 WSW 14.5 0.0 8.5
12:40 10.6 10.5 99 997.2 11.4 S 14.5 0.0 8.5
12:41 10.5 10.4 99 997.1 15.2 WSW 15.2 0.0 8.5
12:42 10.5 10.4 99 997.0 13.0 S 15.2 0.0 8.5
12:43 10.5 10.4 99 997.0 10.7 S 15.2 0.0 8.5
12:44 10.6 10.5 99 997.0 9.8 S 15.2 0.0 8.5
12:45 10.5 10.4 99 997.1 10.7 S 15.2 0.0 8.5
12:46 10.6 10.5 99 997.1 13.0 S 15.2 0.0 8.5
12:47 10.5 10.4 99 997.0 13.0 SE 15.2 0.0 8.5
12:48 10.5 10.4 99 997.2 13.6 S 15.2 0.0 8.5
12:49 10.5 10.4 99 997.1 13.6 S 17.4 0.0 8.5
12:50 10.5 10.4 99 997.1 12.1 S 17.4 0.0 8.5
12:51 10.5 10.4 99 997.1 12.1 S 17.4 0.0 8.5
12:52 10.5 10.4 99 996.9 18.3 S 18.3 0.0 8.5
12:53 10.5 10.4 99 997.1 14.5 S 18.3 0.0 8.5
12:54 10.5 10.4 99 997.2 13.0 S 18.3 0.0 8.5
12:55 10.5 10.4 99 997.1 13.6 S 18.3 0.0 8.5
12:56 10.5 10.4 99 997.2 14.5 S 18.3 0.0 8.5
12:57 10.5 10.4 99 997.2 12.1 S 18.3 0.0 8.5
12:58 10.6 10.5 99 997.1 11.4 S 18.3 0.0 8.5
12:59 10.5 10.4 99 997.1 13.6 S 18.3 0.0 8.5
13:00 10.6 10.5 99 997.1 9.8 WSW 18.3 0.0 8.5
13:01 10.6 10.5 99 997.1 13.6 S 18.3 0.0 8.5
13:02 10.6 10.5 99 997.0 9.2 NNW 18.3 0.0 8.5
13:03 10.6 10.5 99 996.9 13.6 S 15.9 0.0 8.5
13:04 10.6 10.5 99 997.1 15.2 S 15.9 0.0 8.5
13:05 10.6 10.5 99 997.1 10.7 S 15.9 0.0 8.5
13:06 10.6 10.5 99 997.1 10.7 S 15.9 0.0 8.5
13:07 10.7 10.6 99 997.0 11.4 S 15.2 0.0 8.5
13:08 10.7 10.6 99 997.2 14.5 S 15.2 0.0 8.5
13:09 10.7 10.6 99 997.2 12.1 S 15.2 0.0 8.5
13:10 10.7 10.6 99 997.0 12.1 SW 15.2 0.0 8.5
13:11 10.7 10.6 99 997.2 16.8 S 16.8 0.0 8.5
13:12 10.7 10.6 99 997.0 14.5 S 16.8 0.0 8.5
13:13 10.7 10.6 99 997.0 11.4 S 16.8 0.0 8.5
13:14 10.7 10.6 99 997.2 12.1 S 16.8 0.0 8.6
13:15 10.7 10.6 99 997.1 13.0 S 16.8 0.8 8.6
13:16 10.7 10.6 99 997.1 15.9 WSW 16.8 0.8 8.6
13:17 10.7 10.6 99 997.1 15.9 WSW 16.8 0.8 8.6
13:18 10.7 10.6 99 997.1 13.6 S 16.8 0.8 8.6
13:20 10.7 10.6 99 997.0 13.0 S 16.8 0.0 8.6
13:21 10.7 10.6 99 997.1 12.1 S 16.8 0.0 8.6
13:22 10.8 10.7 99 997.0 18.3 WSW 18.3 0.0 8.6
13:23 10.8 10.7 99 997.0 10.7 WSW 18.3 0.8 8.6
13:24 10.8 10.7 99 997.2 10.7 W 18.3 0.8 8.6
13:25 10.7 10.6 99 997.1 16.8 S 18.3 0.8 8.6
13:26 10.8 10.7 99 997.0 16.8 S 18.3 0.8 8.6
13:27 10.8 10.7 99 996.9 17.4 S 18.3 0.8 8.6
13:28 10.8 10.7 99 996.9 14.5 S 18.3 0.0 8.6
13:29 10.8 10.7 99 997.0 13.6 S 18.3 0.0 8.6
13:30 10.8 10.7 99 996.9 13.0 S 18.3 0.0 8.6
13:32 10.8 10.7 99 997.0 13.6 S 18.3 0.0 8.6
13:33 10.8 10.7 99 996.9 15.9 S 17.4 0.0 8.6
13:34 10.8 10.7 99 997.0 15.2 S 17.4 0.0 8.6
13:35 10.8 10.7 99 997.0 13.6 S 17.4 0.0 8.6
13:36 10.8 10.7 99 996.9 15.9 WSW 17.4 0.0 8.6
13:37 10.7 10.6 99 996.9 17.4 S 17.4 0.0 8.7
13:38 10.8 10.7 99 997.0 14.5 S 17.4 0.8 8.7
13:39 10.8 10.7 99 997.1 16.8 S 17.4 0.8 8.7
13:40 10.8 10.7 99 997.0 9.2 S 17.4 0.8 8.7
13:41 10.7 10.6 99 996.9 9.8 S 17.4 0.8 8.7
13:42 10.8 10.7 99 997.1 16.8 S 17.4 0.8 8.7
13:43 10.8 10.7 99 997.0 13.6 S 17.4 0.0 8.7
13:45 10.8 10.7 99 997.0 13.0 S 17.4 0.0 8.7
13:46 10.8 10.7 99 997.1 14.5 S 17.4 0.8 8.8
13:47 10.7 10.6 99 997.1 15.2 S 17.4 0.8 8.8
13:48 10.7 10.6 99 997.1 10.7 S 16.8 0.8 8.8
13:49 10.7 10.6 99 997.1 14.5 S 16.8 0.8 8.8
13:50 10.7 10.6 99 997.0 15.2 WNW 16.8 0.8 8.8
13:51 10.7 10.6 99 997.1 14.5 S 16.8 0.8 8.8
13:52 10.7 10.6 99 997.1 15.2 WSW 16.8 0.8 8.8
13:53 10.7 10.6 99 997.0 19.0 S 19.0 0.8 8.8
13:55 10.7 10.6 99 997.1 15.2 S 19.0 1.5 8.9
13:56 10.7 10.6 99 997.1 13.0 S 19.0 0.8 8.9
13:57 10.7 10.6 99 997.2 13.6 S 19.0 1.5 8.9
13:58 10.7 10.6 99 997.0 13.0 S 19.0 1.5 8.9
13:59 10.7 10.6 99 997.0 11.4 S 19.0 2.3 9.0
14:00 10.7 10.6 99 997.1 11.4 S 19.0 1.5 9.0
14:01 10.7 10.6 99 997.0 11.4 S 19.0 1.5 9.0
14:02 10.7 10.6 99 997.0 11.4 S 19.0 0.8 9.0
14:03 10.7 10.6 99 997.1 11.4 S 19.0 0.8 9.0
14:04 10.7 10.6 99 997.1 11.4 S 15.2 0.0 9.0
14:05 10.7 10.6 99 997.1 15.2 S 15.2 1.5 9.1
14:06 10.8 10.7 99 997.0 14.5 S 15.2 2.3 9.2
14:07 10.8 10.7 99 997.0 12.1 S 15.2 3.0 9.3
14:08 10.8 10.7 99 997.1 12.1 S 15.2 3.0 9.3
14:09 10.8 10.7 99 997.0 17.4 S 17.4 3.0 9.3
14:11 10.8 10.7 99 997.0 15.9 S 17.4 1.5 9.3
14:12 10.8 10.7 99 997.1 17.4 WSW 17.4 0.8 9.3
14:14 10.8 10.7 99 997.1 15.9 WSW 17.4 1.5 9.4
14:15 10.8 10.7 99 997.1 13.0 S 17.4 1.5 9.4
14:17 10.7 10.6 99 997.1 15.2 S 17.4 1.5 9.4
14:18 10.8 10.7 99 997.1 17.4 WSW 17.4 1.5 9.4
14:19 10.8 10.7 99 997.1 17.4 S 17.4 1.5 9.5
14:20 10.8 10.7 99 996.9 15.2 S 17.4 1.5 9.5
14:21 10.8 10.7 99 997.1 23.5 SE 23.5 0.8 9.5
14:22 10.8 10.7 99 997.1 15.2 S 23.5 0.8 9.5
14:23 10.7 10.6 99 997.1 14.5 W 23.5 0.8 9.5
14:24 10.8 10.7 99 997.2 16.8 SW 23.5 0.0 9.5
14:25 10.7 10.6 99 997.2 11.4 W 23.5 0.0 9.5
14:26 10.8 10.7 99 997.0 13.6 S 23.5 0.8 9.6
14:27 10.8 10.7 99 997.2 13.6 S 23.5 0.8 9.6
14:28 10.8 10.7 99 996.9 20.6 NW 23.5 0.8 9.6
14:29 10.7 10.6 99 997.0 19.7 S 23.5 0.8 9.6
14:30 10.7 10.6 99 997.1 17.4 S 23.5 0.8 9.6
14:31 10.8 10.7 99 997.1 10.7 S 23.5 0.0 9.6
14:32 10.7 10.6 99 997.2 15.2 S 20.6 0.0 9.6
14:33 10.7 10.6 99 997.2 15.2 S 20.6 0.0 9.6
14:34 10.7 10.6 99 997.2 16.8 S 20.6 0.0 9.6
14:35 10.7 10.6 99 997.3 17.4 SE 20.6 0.8 9.6
14:36 10.7 10.6 99 997.4 19.0 S 20.6 0.8 9.6
14:37 10.7 10.6 99 997.3 17.4 S 20.6 0.8 9.6
14:38 10.7 10.6 99 997.5 15.9 S 19.7 0.8 9.6
14:39 10.7 10.6 99 997.2 13.0 N 19.0 0.8 9.6
14:40 10.7 10.6 99 997.4 17.4 S 19.0 0.0 9.6
14:41 10.7 10.6 99 997.3 15.2 S 19.0 0.0 9.6
14:42 10.7 10.6 99 997.2 15.9 WSW 19.0 0.0 9.6
14:43 10.7 10.6 99 997.2 18.3 S 19.0 0.0 9.6
14:44 10.7 10.6 99 997.2 10.7 SE 19.0 0.0 9.6
14:45 10.7 10.6 99 997.1 11.4 WNW 19.0 0.0 9.6
14:46 10.7 10.6 99 997.1 13.0 S 19.0 0.8 9.7
14:47 10.7 10.6 99 997.1 17.4 S 19.0 1.5 9.8
14:49 10.7 10.6 99 997.2 15.9 S 19.0 1.5 9.8
14:51 10.8 10.7 99 997.2 17.4 WSW 19.0 1.5 9.8
14:52 10.8 10.7 99 997.2 16.8 S 19.0 0.8 9.8
14:53 10.8 10.7 99 997.2 11.4 S 19.0 0.8 9.8
14:54 10.8 10.7 99 997.2 17.4 WSW 19.0 0.8 9.9
14:55 10.8 10.7 99 997.3 15.9 SE 19.0 1.5 9.9
14:56 10.8 10.7 99 997.2 18.3 S 18.3 0.8 9.9
14:57 10.8 10.7 99 997.3 14.5 WSW 18.3 0.8 9.9
14:58 10.8 10.7 99 997.4 16.8 WSW 18.3 0.8 9.9
14:59 10.8 10.7 99 997.3 15.9 WSW 18.3 0.8 9.9
15:00 10.8 10.7 99 997.2 15.9 WSW 18.3 0.0 9.9
15:01 10.8 10.7 99 997.3 15.9 WSW 18.3 0.0 9.9
15:02 10.8 10.7 99 997.4 15.9 WSW 18.3 0.0 9.9
15:03 10.8 10.7 99 997.4 15.9 WSW 18.3 0.0 9.9
15:04 10.8 10.7 99 997.3 15.9 WSW 18.3 0.0 9.9
15:05 10.8 10.7 99 997.2 15.9 WSW 18.3 1.5 10.0
15:06 10.8 10.7 99 997.3 14.5 S 18.3 1.5 10.1
15:07 10.8 10.7 99 997.4 11.4 S 16.8 2.3 10.1
15:08 10.8 10.7 99 997.2 16.8 WNW 16.8 2.3 10.1
15:09 10.8 10.7 99 997.3 20.6 S 20.6 2.3 10.1
15:10 10.8 10.7 99 997.3 10.7 S 20.6 1.5 10.1
15:11 10.8 10.7 99 997.5 13.6 S 20.6 1.5 10.1
15:12 10.8 10.7 99 997.2 13.6 S 20.6 0.8 10.1
15:13 10.9 10.8 99 997.5 16.8 NNW 20.6 0.8 10.1
15:14 10.8 10.7 99 997.5 16.8 WSW 20.6 0.8 10.2
15:15 10.8 10.7 99 997.3 15.9 WSW 20.6 0.8 10.2
15:16 10.9 10.8 99 997.3 10.7 S 20.6 0.8 10.2
15:18 10.8 10.7 99 997.4 12.1 S 20.6 0.8 10.2
15:19 10.9 10.8 99 997.4 13.6 S 19.0 0.8 10.2
15:20 10.9 10.8 99 997.4 13.6 S 16.8 0.0 10.2
15:21 10.9 10.8 99 997.4 15.9 S 16.8 0.0 10.2
15:22 10.9 10.8 99 997.3 13.0 WSW 16.8 0.8 10.3
15:23 10.9 10.8 99 997.3 9.2 S 16.8 0.8 10.3
15:25 10.9 10.8 99 997.4 14.5 S 15.9 0.8 10.3
15:26 10.9 10.8 99 997.4 13.6 S 15.9 0.8 10.3
15:27 10.9 10.8 99 997.4 12.1 S 15.9 0.0 10.3
15:28 10.9 10.8 99 997.4 12.1 S 15.9 0.0 10.3
15:29 10.9 10.8 99 997.4 11.4 S 15.9 0.0 10.3
15:30 10.9 10.8 99 997.3 12.1 WSW 15.9 0.0 10.3
15:32 10.9 10.8 99 997.3 13.6 S 15.9 0.0 10.3
15:33 10.9 10.8 99 997.3 13.6 S 15.9 0.0 10.3
15:34 10.9 10.8 99 997.4 15.2 WSW 16.8 0.0 10.3
15:35 10.8 10.7 99 997.4 14.5 S 16.8 0.0 10.3
15:36 10.8 10.7 99 997.4 15.2 WSW 16.8 0.0 10.3
15:38 10.8 10.7 99 997.4 11.4 S 16.8 0.8 10.3
15:39 10.8 10.7 99 997.4 13.6 NW 16.8 0.8 10.3
15:40 10.8 10.7 99 997.5 13.0 WSW 16.8 0.8 10.3
15:42 10.8 10.7 99 997.5 13.6 WSW 16.8 0.0 10.3
15:44 10.8 10.7 99 997.6 15.2 S 16.8 0.0 10.3
15:45 10.8 10.7 99 997.7 14.5 S 16.8 0.0 10.3
15:47 10.8 10.7 99 997.5 19.0 NNW 19.0 0.0 10.3
15:48 10.7 10.6 99 997.4 15.2 WSW 19.0 0.8 10.4
15:50 10.7 10.6 99 997.5 15.9 S 19.0 0.8 10.4
15:51 10.7 10.6 99 997.6 14.5 S 19.0 0.8 10.4
15:52 10.7 10.6 99 997.7 14.5 S 19.0 0.8 10.4
15:53 10.7 10.6 99 997.7 13.6 NW 19.0 0.0 10.4
15:54 10.7 10.6 99 997.7 17.4 WSW 19.0 0.0 10.4
15:56 10.7 10.6 99 997.5 14.5 S 19.0 0.8 10.5
15:57 10.7 10.6 99 997.6 11.4 WSW 19.0 1.5 10.5
15:58 10.7 10.6 99 997.7 14.5 NW 17.4 1.5 10.5
15:59 10.7 10.6 99 997.6 15.9 S 17.4 1.5 10.5
16:01 10.7 10.6 99 997.7 15.2 S 17.4 0.8 10.5
16:02 10.7 10.6 99 997.7 10.7 S 17.4 0.8 10.6
16:04 10.7 10.6 99 997.8 15.2 WSW 17.4 0.8 10.6
16:05 10.7 10.6 99 997.7 14.5 SW 16.8 0.8 10.6
16:06 10.7 10.6 99 997.8 14.5 WSW 15.9 0.8 10.6
16:08 10.7 10.6 99 997.8 14.5 WSW 15.9 0.8 10.6
16:09 10.7 10.6 99 997.7 12.1 WSW 15.9 0.8 10.6
16:11 10.7 10.6 99 997.7 14.5 S 15.9 1.5 10.7
16:12 10.7 10.6 99 997.6 13.6 S 18.3 0.8 10.8
16:14 10.7 10.6 99 997.7 15.2 WSW 18.3 1.5 10.8
16:15 10.7 10.6 99 997.6 13.6 WSW 18.3 2.3 10.8
16:18 10.7 10.6 99 997.8 13.6 WSW 18.3 0.8 10.9
16:19 10.7 10.6 99 997.9 13.6 S 18.3 1.5 10.9
16:21 10.7 10.6 99 997.9 13.6 WSW 18.3 0.8 10.9
16:22 10.7 10.6 99 997.8 18.3 WSW 18.3 0.8 10.9
16:23 10.7 10.6 99 997.8 16.8 S 18.3 0.8 11.0
16:24 10.7 10.6 99 997.8 13.6 S 18.3 0.8 11.0
16:25 10.7 10.6 99 997.7 13.0 S 18.3 0.8 11.0
16:27 10.7 10.6 99 997.6 16.8 S 18.3 0.8 11.0
16:28 10.7 10.6 99 997.8 12.1 S 18.3 1.5 11.0
16:30 10.7 10.6 99 997.8 11.4 S 18.3 0.8 11.1
16:31 10.7 10.6 99 997.7 16.8 S 18.3 1.5 11.1
16:32 10.7 10.6 99 997.6 17.4 S 18.3 2.3 11.2
16:33 10.7 10.6 99 997.6 13.0 S 17.4 1.5 11.2
16:35 10.7 10.6 99 997.6 18.3 WSW 19.0 2.3 11.2
16:36 10.7 10.6 99 997.7 17.4 WSW 19.0 1.5 11.2
16:37 10.7 10.6 99 997.8 15.9 S 19.0 0.8 11.2
16:38 10.7 10.6 99 997.6 16.8 S 19.0 1.5 11.3
16:39 10.7 10.6 99 997.7 15.9 WSW 19.0 1.5 11.3
16:40 10.7 10.6 99 997.7 15.9 S 19.0 0.8 11.3
16:41 10.7 10.6 99 997.6 15.9 NNW 19.0 0.8 11.3
16:42 10.7 10.6 99 997.8 12.1 S 19.0 0.8 11.3
16:43 10.7 10.6 99 997.8 16.8 WSW 19.0 0.0 11.3
16:44 10.7 10.6 99 997.8 14.5 WSW 19.0 0.0 11.3
16:45 10.7 10.6 99 997.8 15.2 S 17.4 0.8 11.3
16:46 10.7 10.6 99 997.9 13.0 S 16.8 0.8 11.3
16:47 10.7 10.6 99 997.9 17.4 S 18.3 0.8 11.3
16:48 10.7 10.6 99 997.9 16.8 S 18.3 0.8 11.3
16:49 10.7 10.6 99 997.8 11.4 WSW 18.3 0.8 11.3
16:50 10.7 10.6 99 997.8 12.1 S 18.3 0.0 11.4
16:51 10.7 10.6 99 997.9 14.5 WSW 18.3 0.8 11.4
16:53 10.7 10.6 99 998.0 11.4 S 18.3 0.8 11.4
16:54 10.7 10.6 99 998.0 19.0 W 19.0 0.8 11.4
16:55 10.7 10.6 99 998.0 15.2 NW 19.0 0.8 11.4
16:56 10.7 10.6 99 998.0 18.3 S 19.0 0.0 11.4
16:57 10.6 10.5 99 997.9 12.1 WSW 19.0 0.0 11.4
16:58 10.7 10.6 99 997.8 20.6 WSW 20.6 0.8 11.5
16:59 10.7 10.6 99 997.8 16.8 WSW 20.6 0.8 11.5
17:00 10.7 10.6 99 997.9 16.8 WSW 20.6 0.8 11.5
17:01 10.7 10.6 99 998.0 15.9 S 20.6 0.8 11.5
17:02 10.7 10.6 99 998.0 14.5 NW 20.6 0.8 11.5
17:03 10.7 10.6 99 997.8 20.6 S 20.6 0.8 11.5
17:04 10.7 10.6 99 998.1 18.3 S 20.6 0.8 11.5
17:05 10.7 10.6 99 998.0 14.5 WSW 20.6 0.8 11.5
17:06 10.7 10.6 99 998.0 15.2 S 20.6 0.8 11.5
17:07 10.7 10.6 99 997.9 13.6 WSW 20.6 0.8 11.5
17:08 10.7 10.6 99 997.8 15.2 WSW 20.6 0.0 11.5
17:09 10.7 10.6 99 997.9 13.6 S 20.6 0.0 11.5
17:10 10.7 10.6 99 997.8 13.0 WSW 20.6 0.0 11.5
17:11 10.7 10.6 99 997.9 17.4 S 20.6 0.0 11.5
17:12 10.7 10.6 99 997.9 12.1 S 20.6 0.0 11.5
17:13 10.7 10.6 99 997.8 14.5 W 20.6 0.0 11.5
17:14 10.7 10.6 99 997.8 14.5 WSW 19.0 0.0 11.5
17:16 10.7 10.6 99 997.8 15.9 S 19.0 0.0 11.5
17:17 10.7 10.6 99 998.0 17.4 S 19.0 0.0 11.5
17:18 10.6 10.5 99 998.0 13.0 WSW 17.4 0.0 11.5
17:19 10.6 10.5 99 997.8 15.9 S 17.4 0.0 11.5
17:20 10.7 10.6 99 997.9 17.4 WSW 17.4 0.0 11.5
17:21 10.6 10.5 99 997.9 15.2 WSW 19.7 0.0 11.5
17:22 10.6 10.5 99 997.7 15.9 WSW 19.7 0.0 11.5
17:23 10.7 10.6 99 997.9 15.9 S 19.7 0.0 11.5
17:24 10.7 10.6 99 997.9 12.1 WSW 19.7 0.0 11.5
17:25 10.7 10.6 99 997.9 11.4 WSW 19.7 0.0 11.5
17:26 10.6 10.5 99 997.9 15.9 WSW 19.7 0.0 11.5
17:27 10.7 10.6 99 998.1 16.8 WSW 19.7 0.0 11.5
17:28 10.7 10.6 99 998.2 11.4 WSW 19.7 0.0 11.5
17:29 10.6 10.5 99 998.3 15.9 WSW 19.7 0.0 11.5
17:30 10.7 10.6 99 998.3 15.9 WSW 19.7 0.0 11.5
17:31 10.6 10.5 99 998.2 17.4 S 19.0 0.0 11.5
17:33 10.7 10.6 99 998.2 12.1 S 19.0 0.0 11.5
17:34 10.6 10.5 99 998.2 15.2 WSW 19.0 0.0 11.5
17:35 10.6 10.5 99 998.2 15.2 S 19.0 0.0 11.5
17:36 10.7 10.6 99 998.3 15.2 WSW 19.0 0.0 11.5
17:37 10.6 10.5 99 998.4 15.9 NNW 17.4 0.0 11.6
17:38 10.6 10.5 99 998.4 14.5 S 17.4 0.8 11.6
17:39 10.6 10.5 99 998.4 16.8 S 17.4 0.8 11.6
17:40 10.6 10.5 99 998.2 15.2 WSW 17.4 0.8 11.6
17:41 10.6 10.5 99 998.2 15.2 WSW 17.4 0.8 11.6
17:42 10.6 10.5 99 998.2 11.4 WSW 16.8 0.8 11.6
17:43 10.6 10.5 99 998.2 13.0 WSW 16.8 0.0 11.7
17:45 10.6 10.5 99 998.3 13.0 S 16.8 0.8 11.7
17:46 10.6 10.5 99 998.2 10.7 WSW 16.8 0.8 11.7
17:47 10.6 10.5 99 998.4 13.0 WSW 16.8 1.5 11.7
17:48 10.6 10.5 99 998.3 13.0 WSW 16.8 1.5 11.7
17:49 10.6 10.5 99 998.5 13.0 WSW 16.8 0.8 11.7
17:50 10.6 10.5 99 998.6 12.1 WSW 16.8 1.5 11.8
17:51 10.6 10.5 99 998.7 13.0 WSW 13.6 1.5 11.8
17:52 10.6 10.5 99 998.7 18.3 WSW 18.3 0.8 11.8
17:53 10.6 10.5 99 998.7 18.3 WSW 18.3 0.8 11.8
17:54 10.6 10.5 99 998.7 13.0 W 18.3 1.5 11.8
17:55 10.5 10.4 99 998.5 13.6 WSW 18.3 0.8 11.8
17:56 10.5 10.4 99 998.5 13.6 WSW 18.3 0.8 11.8
17:58 10.5 10.4 99 998.5 9.8 WSW 18.3 0.8 11.8
17:59 10.5 10.4 99 998.5 10.7 WSW 18.3 0.0 11.8
18:00 10.5 10.4 99 998.6 10.7 WSW 18.3 0.0 11.8
18:01 10.5 10.4 99 998.6 10.7 WSW 18.3 0.0 11.8
18:02 10.5 10.4 99 998.4 10.7 WSW 18.3 0.0 11.8
18:03 10.5 10.4 99 998.6 10.7 WSW 18.3 0.0 11.8
18:04 10.4 10.3 99 998.6 11.4 S 15.2 0.0 11.8
18:05 10.3 10.2 99 998.7 13.6 WSW 13.6 0.0 11.8
18:06 10.3 10.2 99 998.6 9.8 WSW 13.6 0.0 11.8
18:07 10.2 10.1 99 998.7 12.1 WSW 13.6 0.0 11.8
18:09 10.2 10.1 99 998.7 10.7 WSW 13.6 0.0 11.8
18:10 10.2 10.1 99 998.6 9.8 WSW 13.6 0.0 11.8
18:11 10.1 10.0 99 998.5 7.6 S 13.6 0.0 11.8
18:13 10.1 10.0 99 998.4 10.7 WSW 13.6 0.0 11.8
18:14 10.0 9.9 99 998.6 10.7 S 13.6 0.0 11.8
18:16 10.0 9.9 99 998.6 11.4 WSW 12.1 0.0 11.8
18:17 9.9 9.8 99 998.7 9.8 N 12.1 0.0 11.8
18:19 9.8 9.7 99 998.6 10.7 WSW 11.4 0.0 11.8
18:20 9.8 9.7 99 998.6 9.8 WSW 11.4 0.0 11.8
18:21 9.8 9.7 99 998.8 9.2 S 11.4 0.0 11.8
18:22 9.7 9.6 99 998.7 9.8 S 11.4 0.0 11.8
18:23 9.7 9.6 99 998.7 12.1 S 12.1 0.0 11.8
18:25 9.7 9.6 99 998.5 9.8 WSW 12.1 0.0 11.8
18:26 9.6 9.5 99 998.6 9.2 WSW 12.1 0.0 11.8
18:27 9.6 9.5 99 998.7 7.6 WSW 12.1 0.0 11.8
18:29 9.5 9.4 99 998.8 6.9 S 12.1 0.0 11.8
18:30 9.5 9.4 99 998.7 6.9 S 12.1 0.0 11.8
18:31 9.5 9.4 99 998.6 9.2 S 12.1 0.0 11.8
18:32 9.5 9.4 99 998.7 9.2 S 12.1 0.0 11.8
18:33 9.4 9.3 99 998.7 9.8 S 12.1 0.0 11.8
18:34 9.4 9.3 99 998.8 8.3 WSW 9.8 0.0 11.8
18:35 9.4 9.3 99 998.9 6.9 S 9.8 0.0 11.8
18:36 9.3 9.2 99 998.8 9.2 WSW 9.8 0.0 11.8
18:37 9.3 9.2 99 998.8 13.0 S 13.0 0.0 11.8
18:39 9.3 9.2 99 998.8 9.2 S 13.0 0.0 11.8
18:40 9.3 9.2 99 998.9 7.6 S 13.0 0.0 11.8
18:41 9.2 9.1 99 998.9 9.2 S 13.0 0.0 11.8
18:42 9.3 9.2 99 998.8 6.9 WSW 13.0 0.0 11.8
18:43 9.2 9.1 99 998.9 8.3 WSW 13.0 0.0 11.8
18:44 9.2 9.1 99 999.1 6.0 WSW 13.0 0.0 11.8
18:45 9.2 9.1 99 998.9 6.9 S 13.0 0.0 11.8
18:46 9.2 9.1 99 999.1 8.3 S 13.0 0.0 11.8
18:48 9.2 9.1 99 999.2 7.6 WSW 9.2 0.0 11.8
18:49 9.1 9.0 99 999.1 7.6 WSW 9.2 0.0 11.8
18:50 9.1 9.0 99 999.1 9.2 S 9.2 0.0 11.8
18:51 9.1 9.0 99 999.1 6.9 WSW 9.2 0.0 11.8
18:53 9.1 9.0 99 999.1 8.3 W 9.2 0.0 11.8
18:54 9.1 9.0 99 999.1 8.3 W 9.2 0.0 11.8
18:56 9.1 9.0 99 999.2 6.9 WSW 9.2 0.0 11.8
18:57 9.0 8.9 99 999.2 6.0 WSW 9.2 0.0 11.8
18:58 9.0 8.9 99 999.1 6.0 S 9.2 0.0 11.8
18:59 9.0 8.9 99 999.0 8.3 S 9.2 0.0 11.8
19:01 9.0 8.9 99 999.1 8.3 S 8.3 0.0 11.8
19:02 9.0 8.9 99 999.1 8.3 S 8.3 0.0 11.8
19:03 9.0 8.9 99 999.2 8.3 S 8.3 0.0 11.8
19:04 8.9 8.8 99 998.9 8.3 W 8.3 0.0 11.8
19:05 8.9 8.8 99 998.9 6.0 W 8.3 0.0 11.8
19:06 8.9 8.8 99 999.0 5.4 S 8.3 0.0 11.8
19:08 8.8 8.7 99 998.9 6.0 S 8.3 0.0 11.8
19:09 8.8 8.7 99 999.1 7.6 WSW 8.3 0.0 11.8
19:10 8.8 8.7 99 999.3 8.3 S 9.2 0.0 11.8
19:11 8.7 8.6 99 999.3 7.6 S 9.2 0.0 11.8
19:13 8.7 8.6 99 999.4 6.9 S 9.2 0.0 11.8
19:14 8.7 8.6 99 999.3 6.9 WSW 9.2 0.0 11.8
19:15 8.7 8.6 99 999.3 8.3 WSW 9.2 0.0 11.8
19:16 8.7 8.6 99 999.3 6.9 WSW 9.2 0.0 11.8
19:17 8.7 8.6 99 999.2 7.6 S 9.2 0.0 11.8
19:18 8.7 8.6 99 999.3 7.6 S 9.2 0.0 11.8
19:19 8.7 8.6 99 999.4 9.8 S 9.8 0.0 11.8
19:20 8.7 8.6 99 999.4 7.6 S 9.8 0.0 11.8
19:22 8.7 8.6 99 999.2 8.3 S 9.8 0.0 11.8
19:23 8.7 8.6 99 999.4 6.9 WSW 9.8 0.0 11.8
19:24 8.7 8.6 99 999.3 10.7 S 10.7 0.0 11.8
19:25 8.7 8.6 99 999.3 6.9 WSW 10.7 0.0 11.8
19:26 8.7 8.6 99 999.4 9.2 S 10.7 0.0 11.8
19:27 8.7 8.6 99 999.3 9.2 S 10.7 0.0 11.8
19:28 8.7 8.6 99 999.2 7.6 S 10.7 0.0 11.8
19:29 8.6 8.5 99 999.1 9.2 S 10.7 0.0 11.8
19:30 8.6 8.5 99 999.2 9.2 S 10.7 0.0 11.8
19:32 8.6 8.5 99 999.2 11.4 WSW 11.4 0.0 11.8
19:33 8.6 8.5 99 999.3 9.2 S 11.4 0.0 11.8
19:34 8.6 8.5 99 999.2 10.7 WSW 11.4 0.0 11.8
19:35 8.6 8.5 99 999.2 7.6 S 11.4 0.0 11.8
19:36 8.6 8.5 99 999.2 6.9 S 11.4 0.0 11.8
19:37 8.6 8.5 99 999.4 7.6 S 11.4 0.0 11.8
19:38 8.6 8.5 99 999.3 6.9 WSW 11.4 0.0 11.8
19:40 8.7 8.6 99 999.4 7.6 WSW 11.4 0.0 11.8
19:41 8.7 8.6 99 999.3 7.6 WSW 11.4 0.0 11.8
19:42 8.6 8.5 99 999.5 9.8 WSW 11.4 0.0 11.8
19:43 8.6 8.5 99 999.4 9.2 WSW 10.7 0.0 11.8
19:44 8.6 8.5 99 999.5 8.3 WSW 10.7 0.0 11.8
19:45 8.6 8.5 99 999.6 8.3 S 9.8 0.0 11.8
19:46 8.7 8.6 99 999.7 7.6 S 9.8 0.0 11.8
19:47 8.6 8.5 99 999.6 8.3 WSW 9.8 0.0 11.8
19:49 8.6 8.5 99 999.6 6.9 WSW 9.8 0.0 11.8
19:50 8.6 8.5 99 999.5 8.3 N 9.8 0.0 11.8
19:51 8.6 8.5 99 999.4 8.3 N 9.8 0.0 11.8
19:53 8.6 8.5 99 999.4 7.6 S 9.2 0.0 11.8
19:54 8.6 8.5 99 999.6 8.3 WSW 8.3 0.0 11.8
19:55 8.6 8.5 99 999.7 8.3 S 8.3 0.0 11.8
19:56 8.6 8.5 99 999.6 7.6 S 8.3 0.0 11.8
19:57 8.6 8.5 99 999.7 9.8 S 9.8 0.0 11.8
19:58 8.6 8.5 99 999.6 10.7 S 10.7 0.0 11.8
19:59 8.5 8.4 99 999.6 7.6 WSW 10.7 0.0 11.8
20:00 8.5 8.4 99 999.7 7.6 WSW 10.7 0.0 11.8
20:02 8.5 8.4 99 999.5 7.6 WSW 10.7 0.0 11.8
20:03 8.5 8.4 99 999.5 7.6 WSW 10.7 0.0 11.8
20:04 8.5 8.4 99 999.7 7.6 WSW 10.7 0.0 11.8
20:05 8.6 8.5 99 999.4 10.7 WSW 10.7 0.0 11.8
20:06 8.6 8.5 99 999.5 8.3 WSW 10.7 0.0 11.8
20:07 8.6 8.5 99 999.7 11.4 S 11.4 0.0 11.8
20:08 8.6 8.5 99 999.6 11.4 S 11.4 0.0 11.8
20:09 8.5 8.4 99 999.7 9.2 S 11.4 0.0 11.8
20:11 8.5 8.4 99 999.6 9.8 S 11.4 0.0 11.8
20:12 8.5 8.4 99 999.7 9.2 W 11.4 0.0 11.8
20:14 8.5 8.4 99 999.6 7.6 S 11.4 0.0 11.8
20:15 8.5 8.4 99 999.7 9.2 WSW 11.4 0.0 11.8
20:17 8.5 8.4 99 999.8 8.3 S 11.4 0.0 11.8
20:19 8.5 8.4 99 999.9 10.7 S 10.7 0.0 11.8
20:21 8.5 8.4 99 999.9 9.2 S 10.7 0.0 11.8
20:22 8.5 8.4 99 1000.0 8.3 WSW 10.7 0.0 11.8
20:23 8.5 8.4 99 999.9 9.2 S 10.7 0.0 11.8
20:25 8.5 8.4 99 999.8 9.8 WSW 10.7 0.0 11.8
20:26 8.5 8.4 99 999.8 9.8 WSW 10.7 0.0 11.8
20:27 8.5 8.4 99 999.9 9.8 WSW 10.7 0.0 11.8
20:28 8.5 8.4 99 1000.1 9.8 WSW 10.7 0.0 11.8
20:29 8.5 8.4 99 999.9 8.3 WSW 9.8 0.0 11.8
20:30 8.5 8.4 99 999.9 8.3 WSW 9.8 0.0 11.8
20:32 8.5 8.4 99 999.9 7.6 S 9.8 0.0 11.8
20:33 8.5 8.4 99 999.8 9.8 S 9.8 0.0 11.8
20:34 8.5 8.4 99 999.8 9.2 S 11.4 0.0 11.8
20:36 8.6 8.5 99 999.8 9.2 S 11.4 0.0 11.8
20:37 8.6 8.5 99 999.7 9.8 S 11.4 0.0 11.8
20:38 8.6 8.5 99 999.8 9.8 S 11.4 0.0 11.8
20:39 8.6 8.5 99 999.9 11.4 WSW 11.4 0.0 11.8
20:40 8.6 8.5 99 999.9 11.4 WSW 11.4 0.0 11.8
20:41 8.7 8.6 99 1000.0 9.2 W 11.4 0.0 11.8
20:43 8.6 8.5 99 999.9 9.8 SW 11.4 0.0 11.8
20:44 8.7 8.6 99 999.7 11.4 N 11.4 0.0 11.8
20:46 8.7 8.6 99 999.8 9.2 SE 11.4 0.0 11.8
20:48 8.7 8.6 99 1000.0 8.3 W 11.4 0.0 11.8
20:49 8.7 8.6 99 1000.0 8.3 W 11.4 0.0 11.8
20:50 8.7 8.6 99 1000.0 8.3 WSW 11.4 0.0 11.8
20:51 8.7 8.6 99 1000.0 9.2 WSW 11.4 0.8 11.9
20:53 8.7 8.6 99 1000.2 9.8 S 11.4 0.8 11.9
20:54 8.7 8.6 99 999.9 7.6 S 11.4 0.8 11.9
20:55 8.7 8.6 99 1000.0 7.6 WSW 10.7 0.8 11.9
20:56 8.7 8.6 99 1000.2 8.3 WSW 9.8 0.0 11.9
20:58 8.7 8.6 99 1000.2 9.2 S 9.8 0.0 11.9
20:59 8.7 8.6 99 1000.3 7.6 WSW 9.8 0.0 11.9
21:01 8.7 8.6 99 1000.2 7.6 WSW 9.8 0.0 11.9
21:04 8.7 8.6 99 1000.2 7.6 WSW 9.8 0.0 11.9
21:05 8.7 8.6 99 1000.2 9.2 S 9.8 0.0 11.9
21:06 8.7 8.6 99 1000.3 8.3 S 9.8 0.0 11.9
21:07 8.7 8.6 99 1000.4 9.8 S 9.8 0.0 11.9
21:08 8.7 8.6 99 1000.3 10.7 S 10.7 0.0 11.9
21:10 8.7 8.6 99 1000.3 6.9 S 10.7 0.0 11.9
21:13 8.7 8.6 99 1000.3 9.8 WSW 10.7 0.0 11.9
21:16 8.8 8.7 99 1000.3 9.2 WSW 10.7 0.0 11.9
21:18 8.8 8.7 99 1000.2 9.8 WSW 10.7 0.0 11.9
21:19 8.8 8.7 99 1000.2 11.4 S 11.4 0.0 11.9
21:20 8.8 8.7 99 1000.4 6.9 S 11.4 0.0 11.9
21:22 8.8 8.7 99 1000.3 11.4 S 11.4 0.0 11.9
21:23 8.8 8.7 99 1000.1 11.4 S 11.4 0.0 11.9
21:24 8.8 8.7 99 1000.1 11.4 S 11.4 0.0 11.9
21:25 8.8 8.7 99 1000.2 9.8 S 11.4 0.0 11.9
21:27 8.9 8.8 99 1000.4 8.3 S 11.4 0.0 11.9
21:28 8.9 8.8 99 1000.2 9.8 WSW 11.4 0.0 11.9
21:29 8.8 8.7 99 1000.2 9.2 S 11.4 0.0 11.9
21:30 8.9 8.8 99 1000.4 8.3 S 11.4 0.0 11.9
21:32 8.9 8.8 99 1000.4 9.2 S 11.4 0.0 11.9
21:33 8.9 8.8 99 1000.6 8.3 S 11.4 0.0 11.9
21:34 8.9 8.8 99 1000.5 9.8 WSW 11.4 0.0 11.9
21:35 8.9 8.8 99 1000.4 10.7 S 12.1 0.0 11.9
21:37 9.0 8.9 99 1000.6 12.1 S 12.1 0.0 11.9
21:38 9.0 8.9 99 1000.6 6.9 S 12.1 0.0 11.9
21:39 9.0 8.9 99 1000.6 8.3 S 12.1 0.0 11.9
21:40 9.0 8.9 99 1000.6 9.2 S 12.1 0.0 11.9
21:41 9.0 8.9 99 1000.5 6.9 S 12.1 0.0 11.9
21:42 9.0 8.9 99 1000.7 11.4 WSW 12.1 0.0 11.9
21:43 9.0 8.9 99 1000.7 13.6 S 13.6 0.0 11.9
21:45 9.0 8.9 99 1000.7 11.4 S 13.6 0.0 11.9
21:46 9.0 8.9 99 1000.7 9.2 WNW 13.6 0.0 11.9
21:47 9.0 8.9 99 1000.7 8.3 S 13.6 0.0 11.9
21:48 9.0 8.9 99 1000.6 7.6 S 13.6 0.0 11.9
21:50 9.0 8.9 99 1000.7 9.2 S 13.6 0.0 11.9
21:51 9.1 9.0 99 1000.6 9.2 WSW 13.6 0.0 11.9
21:52 9.1 9.0 99 1000.7 10.7 S 13.6 0.0 11.9
21:53 9.1 9.0 99 1000.6 9.8 S 13.6 0.0 12.0
21:55 9.1 9.0 99 1000.6 10.7 S 10.7 0.8 12.0
21:56 9.1 9.0 99 1000.6 13.0 WSW 13.0 0.8 12.0
21:57 9.1 9.0 99 1000.6 7.6 WSW 13.0 0.8 12.0
21:58 9.1 9.0 99 1000.6 10.7 S 13.0 0.8 12.0
21:59 9.1 9.0 99 1000.7 10.7 WSW 13.0 0.0 12.0
22:00 9.1 9.0 99 1000.5 10.7 WSW 13.0 0.0 12.0
22:02 9.1 9.0 99 1000.7 10.7 WSW 13.0 0.0 12.0
22:03 9.1 9.0 99 1000.7 10.7 WSW 13.0 0.0 12.0
22:04 9.1 9.0 99 1000.7 10.7 WSW 13.0 0.0 12.0
22:05 9.2 9.1 99 1000.7 9.2 S 13.0 0.0 12.0
22:06 9.2 9.1 99 1000.7 9.8 S 10.7 0.0 12.0
22:07 9.2 9.1 99 1000.7 10.7 WSW 10.7 0.0 12.0
22:08 9.2 9.1 99 1000.7 9.8 S 10.7 0.0 12.0
22:10 9.2 9.1 99 1000.7 10.7 N 10.7 0.0 12.0
22:11 9.2 9.1 99 1000.7 9.2 WSW 10.7 0.0 12.0
22:13 9.2 9.1 99 1000.7 9.8 S 11.4 0.0 12.0
22:14 9.3 9.2 99 1000.7 8.3 W 11.4 0.0 12.0
22:16 9.2 9.1 99 1000.7 9.8 WSW 11.4 0.0 12.0
22:18 9.2 9.1 99 1000.9 9.8 S 11.4 0.0 12.0
22:19 9.3 9.2 99 1001.0 9.8 S 11.4 0.0 12.0
22:21 9.3 9.2 99 1000.8 9.2 S 11.4 0.0 12.0
22:22 9.3 9.2 99 1000.9 9.8 S 11.4 0.8 12.0
22:24 9.3 9.2 99 1000.9 13.6 S 13.6 1.5 12.1
22:26 9.3 9.2 99 1001.0 7.6 WSW 13.6 1.5 12.2
22:27 9.3 9.2 99 1001.0 6.0 S 13.6 1.5 12.2
22:28 9.3 9.2 99 1001.1 11.4 W 13.6 1.5 12.2
22:29 9.3 9.2 99 1001.0 9.8 W 13.6 0.8 12.2
22:30 9.3 9.2 99 1001.0 8.3 S 13.6 1.5 12.2
22:32 9.3 9.2 99 1000.9 9.8 WSW 13.6 0.8 12.2
22:33 9.3 9.2 99 1001.1 10.7 S 13.6 0.8 12.2
22:34 9.3 9.2 99 1001.1 10.7 SE 13.6 0.8 12.2
22:35 9.3 9.2 99 1001.1 7.6 S 11.4 0.0 12.2
22:36 9.3 9.2 99 1001.0 9.8 SE 11.4 0.0 12.2
22:37 9.4 9.3 99 1000.8 15.2 S 15.2 0.0 12.2
22:38 9.4 9.3 99 1001.0 17.4 S 17.4 0.0 12.2
22:39 9.4 9.3 99 1001.0 16.8 WSW 17.4 0.0 12.2
22:40 9.4 9.3 99 1000.9 10.7 S 17.4 0.0 12.2
22:42 9.3 9.2 99 1001.0 14.5 S 17.4 0.0 12.2
22:43 9.4 9.3 99 1001.2 11.4 S 17.4 0.0 12.2
22:44 9.4 9.3 99 1001.1 12.1 S 17.4 0.0 12.2
22:45 9.4 9.3 99 1001.1 9.8 WSW 17.4 0.0 12.2
22:46 9.4 9.3 99 1001.2 12.1 S 17.4 0.0 12.2
22:47 9.3 9.2 99 1001.2 13.0 S 17.4 0.0 12.2
22:48 9.4 9.3 99 1001.1 11.4 S 16.8 0.0 12.2
22:49 9.3 9.2 99 1001.2 11.4 S 14.5 0.0 12.2
22:50 9.3 9.2 99 1001.1 8.3 WSW 14.5 0.0 12.2
22:52 9.3 9.2 99 1001.2 13.0 S 14.5 0.0 12.2
22:53 9.3 9.2 99 1001.1 10.7 S 13.6 0.0 12.2
22:54 9.3 9.2 99 1001.1 8.3 S 13.6 0.0 12.2
22:55 9.3 9.2 99 1001.1 13.0 S 13.0 0.0 12.2
22:56 9.3 9.2 99 1001.1 10.7 S 13.0 0.0 12.2
22:57 9.3 9.2 99 1000.9 10.7 WSW 13.0 0.0 12.2
22:58 9.2 9.1 99 1001.0 10.7 WSW 13.0 0.0 12.2
22:59 9.2 9.1 99 1001.1 13.0 S 13.0 0.0 12.2
23:00 9.2 9.1 99 1001.2 13.0 S 13.0 0.0 12.2
23:02 9.2 9.1 99 1001.3 13.0 S 13.0 0.0 12.2
23:03 9.2 9.1 99 1001.2 13.0 S 13.0 0.0 12.2
23:04 9.2 9.1 99 1001.2 13.0 WSW 13.0 0.0 12.2
23:05 9.1 9.0 99 1001.2 11.4 WSW 13.0 0.0 12.2
23:06 9.1 9.0 99 1001.3 11.4 S 13.0 0.0 12.2
23:07 9.1 9.0 99 1001.4 12.1 WNW 13.0 0.0 12.2
23:08 9.1 9.0 99 1001.2 11.4 WSW 15.2 0.0 12.2
23:10 9.0 8.9 99 1001.2 13.6 S 15.2 0.0 12.2
23:11 9.0 8.9 99 1001.2 12.1 WSW 15.2 0.0 12.2
23:12 9.0 8.9 99 1001.2 10.7 NW 15.2 0.0 12.2
23:14 8.9 8.8 99 1001.2 13.0 S 15.2 0.0 12.2
23:15 8.9 8.8 99 1001.2 10.7 S 15.2 0.0 12.2
23:16 8.9 8.8 99 1001.3 9.8 WNW 15.2 0.0 12.2
23:17 8.8 8.7 99 1001.3 11.4 WNW 15.2 0.0 12.2
23:18 8.8 8.7 99 1001.4 10.7 S 13.6 0.0 12.2
23:19 8.8 8.7 99 1001.5 13.6 WSW 13.6 0.0 12.2
23:21 8.7 8.6 99 1001.4 8.3 S 13.6 0.0 12.2
23:22 8.7 8.6 99 1001.6 9.2 S 13.6 0.0 12.2
23:23 8.7 8.6 99 1001.5 9.8 S 13.6 0.0 12.2
23:24 8.7 8.6 99 1001.6 11.4 S 13.6 0.0 12.2
23:25 8.7 8.6 99 1001.6 8.3 S 13.6 0.0 12.2
23:26 8.6 8.5 99 1001.7 9.2 S 13.6 0.0 12.2
23:28 8.6 8.5 99 1001.6 14.5 S 14.5 0.0 12.2
23:30 8.6 8.5 99 1001.6 11.4 WSW 14.5 0.0 12.2
23:31 8.6 8.5 99 1001.6 10.7 S 14.5 0.0 12.2
23:32 8.5 8.4 99 1001.6 9.2 S 14.5 0.0 12.2
23:33 8.5 8.4 99 1001.6 12.1 S 14.5 0.0 12.2
23:34 8.5 8.4 99 1001.7 13.0 WSW 14.5 0.0 12.2
23:35 8.5 8.4 99 1001.6 13.0 S 14.5 0.0 12.2
23:36 8.5 8.4 99 1001.6 10.7 WSW 14.5 0.0 12.2
23:37 8.5 8.4 99 1001.6 13.6 WSW 14.5 0.0 12.2
23:39 8.4 8.3 99 1001.7 9.2 S 13.6 0.0 12.2
23:40 8.4 8.3 99 1001.7 10.7 WSW 13.6 0.0 12.2
23:41 8.4 8.3 99 1001.8 11.4 WSW 13.6 0.0 12.2
23:42 8.4 8.3 99 1001.8 9.2 S 13.6 0.0 12.2
23:43 8.4 8.3 99 1001.8 9.8 WSW 13.6 0.0 12.2
23:45 8.4 8.3 99 1001.7 13.6 WSW 13.6 0.0 12.2
23:46 8.5 8.4 99 1001.8 13.0 W 13.6 0.0 12.2
23:47 8.4 8.3 99 1001.9 9.8 S 13.6 0.0 12.2
23:48 8.4 8.3 99 1001.8 12.1 S 13.6 0.0 12.2
23:50 8.5 8.4 99 1001.8 11.4 S 13.6 0.0 12.2
23:51 8.5 8.4 99 1001.9 13.6 S 13.6 0.0 12.2
23:52 8.4 8.3 99 1001.9 11.4 S 13.6 0.0 12.2
23:53 8.5 8.4 99 1001.7 9.8 WSW 13.6 0.0 12.2
23:54 8.5 8.4 99 1001.8 12.1 S 13.6 0.0 12.2
23:55 8.5 8.4 99 1001.9 12.1 WSW 13.6 0.0 12.2
23:56 8.5 8.4 99 1001.9 9.8 WSW 13.6 0.0 12.2
23:58 8.5 8.4 99 1001.9 12.1 WSW 13.6 0.0 12.2

UK - WEATHER STATION TOPSITES - UK World Weather Websites

This is a private weather station, never base important decisions or events on data from this weather station. Although every effort has been made to make the data as accurate as possible it does not meet MetOffice standards. It is proved as a guide of local weather conditions. We accept no liability for any loss which may arise from use of the data.

Copyright © Carnkie Weather 2009 - 2018.